PWSweather.com
Personal Weather Stations
Station Observations
IQUEENSL78
Red HillAU 4059

Red HillAU 4059

Lat: -27.45317, Lon: 152.997708

Elevation: 40

Station Type: FOS WH3081

High Low Average
Temperature 83.1°F28.4°C 63.3°F17.4°C 72.2°F22.3°C
Dew Point 69.3°F20.7°C 58.4°F14.7°C 64.1°F17.8°C
Winds 13.4 mph 21.6 kmh Calm Calm 1.0 mph ENE1.6 kmh ENE
Wind Gusts 13.4 mph21.6 kmh -- 2.0 mph3.2 kmh
Humidity 86% 62% 77%
Pressure 29.99 in1015.6 mb 29.82 in1009.8 mb -
Precipitation 0.51 in13.0 mm - -
Hour Temp Dew Point Humidity Winds Wind Gusts Pressure Precip Precip Rate Daily Precip Total
10:01 AM 82.0°F27.8°C 68.7°F20.4°C 64% Calm Calm -- 29.87 in1011.5 mb 0.00 in0.0 mm 0.00 in/hr0.0 mm/hr 0.00 in0.0 mm
10:03 AM 82.0°F27.8°C 68.7°F20.4°C 64% Calm Calm -- 29.87 in1011.5 mb 0.00 in0.0 mm 0.00 in/hr0.0 mm/hr 0.00 in0.0 mm
10:05 AM 82.2°F27.9°C 68.8°F20.4°C 64% Calm Calm -- 29.87 in1011.5 mb 0.00 in0.0 mm 0.00 in/hr0.0 mm/hr 0.00 in0.0 mm
10:07 AM 82.2°F27.9°C 68.8°F20.4°C 64% 3.4 mph SE5.5 kmh SE 3.4 mph5.5 kmh 29.87 in1011.5 mb 0.00 in0.0 mm 0.00 in/hr0.0 mm/hr 0.00 in0.0 mm
10:09 AM 82.2°F27.9°C 68.8°F20.4°C 64% Calm Calm 3.4 mph5.5 kmh 29.86 in1011.2 mb 0.00 in0.0 mm 0.00 in/hr0.0 mm/hr 0.00 in0.0 mm
10:11 AM 82.2°F27.9°C 68.8°F20.4°C 64% Calm Calm 3.4 mph5.5 kmh 29.86 in1011.2 mb 0.00 in0.0 mm 0.00 in/hr0.0 mm/hr 0.00 in0.0 mm
10:13 AM 82.2°F27.9°C 69.3°F20.7°C 65% Calm Calm 3.4 mph5.5 kmh 29.87 in1011.5 mb 0.00 in0.0 mm 0.00 in/hr0.0 mm/hr 0.00 in0.0 mm
10:15 AM 82.2°F27.9°C 69.3°F20.7°C 65% Calm Calm 3.4 mph5.5 kmh 29.87 in1011.5 mb 0.00 in0.0 mm 0.00 in/hr0.0 mm/hr 0.00 in0.0 mm
10:17 AM 82.2°F27.9°C 69.3°F20.7°C 65% Calm Calm 3.4 mph5.5 kmh 29.87 in1011.5 mb 0.00 in0.0 mm 0.00 in/hr0.0 mm/hr 0.00 in0.0 mm
10:19 AM 82.2°F27.9°C 69.3°F20.7°C 65% Calm Calm -- 29.87 in1011.5 mb 0.00 in0.0 mm 0.00 in/hr0.0 mm/hr 0.00 in0.0 mm
10:21 AM 82.2°F27.9°C 69.3°F20.7°C 65% Calm Calm -- 29.87 in1011.5 mb 0.00 in0.0 mm 0.00 in/hr0.0 mm/hr 0.00 in0.0 mm
10:23 AM 82.2°F27.9°C 69.3°F20.7°C 65% Calm Calm -- 29.86 in1011.2 mb 0.00 in0.0 mm 0.00 in/hr0.0 mm/hr 0.00 in0.0 mm
10:25 AM 82.2°F27.9°C 68.8°F20.4°C 64% Calm Calm -- 29.87 in1011.5 mb 0.00 in0.0 mm 0.00 in/hr0.0 mm/hr 0.00 in0.0 mm
10:27 AM 82.2°F27.9°C 68.8°F20.4°C 64% Calm Calm -- 29.87 in1011.5 mb 0.00 in0.0 mm 0.00 in/hr0.0 mm/hr 0.00 in0.0 mm
10:29 AM 82.2°F27.9°C 68.8°F20.4°C 64% 1.6 mph ESE2.6 kmh ESE 1.6 mph2.6 kmh 29.87 in1011.5 mb 0.00 in0.0 mm 0.00 in/hr0.0 mm/hr 0.00 in0.0 mm
10:31 AM 82.2°F27.9°C 68.8°F20.4°C 64% Calm Calm 1.6 mph2.6 kmh 29.87 in1011.5 mb 0.00 in0.0 mm 0.00 in/hr0.0 mm/hr 0.00 in0.0 mm
10:33 AM 82.2°F27.9°C 68.8°F20.4°C 64% Calm Calm 1.6 mph2.6 kmh 29.87 in1011.5 mb 0.00 in0.0 mm 0.00 in/hr0.0 mm/hr 0.00 in0.0 mm
10:35 AM 82.2°F27.9°C 68.8°F20.4°C 64% Calm Calm 1.6 mph2.6 kmh 29.86 in1011.2 mb 0.00 in0.0 mm 0.00 in/hr0.0 mm/hr 0.00 in0.0 mm
10:37 AM 82.2°F27.9°C 68.8°F20.4°C 64% Calm Calm 1.6 mph2.6 kmh 29.87 in1011.5 mb 0.00 in0.0 mm 0.00 in/hr0.0 mm/hr 0.00 in0.0 mm
10:39 AM 82.2°F27.9°C 68.8°F20.4°C 64% Calm Calm 1.6 mph2.6 kmh 29.87 in1011.5 mb 0.00 in0.0 mm 0.00 in/hr0.0 mm/hr 0.00 in0.0 mm
10:41 AM 82.2°F27.9°C 68.8°F20.4°C 64% Calm Calm -- 29.86 in1011.2 mb 0.00 in0.0 mm 0.00 in/hr0.0 mm/hr 0.00 in0.0 mm
10:43 AM 82.2°F27.9°C 68.8°F20.4°C 64% Calm Calm -- 29.87 in1011.5 mb 0.00 in0.0 mm 0.00 in/hr0.0 mm/hr 0.00 in0.0 mm
10:45 AM 82.2°F27.9°C 68.8°F20.4°C 64% Calm Calm -- 29.87 in1011.5 mb 0.00 in0.0 mm 0.00 in/hr0.0 mm/hr 0.00 in0.0 mm
10:47 AM 82.2°F27.9°C 68.8°F20.4°C 64% Calm Calm -- 29.87 in1011.5 mb 0.00 in0.0 mm 0.00 in/hr0.0 mm/hr 0.00 in0.0 mm
10:49 AM 82.2°F27.9°C 68.8°F20.4°C 64% Calm Calm -- 29.87 in1011.5 mb 0.00 in0.0 mm 0.00 in/hr0.0 mm/hr 0.00 in0.0 mm
10:51 AM 82.2°F27.9°C 68.8°F20.4°C 64% Calm Calm -- 29.86 in1011.2 mb 0.00 in0.0 mm 0.00 in/hr0.0 mm/hr 0.00 in0.0 mm
10:53 AM 82.2°F27.9°C 68.8°F20.4°C 64% Calm Calm -- 29.86 in1011.2 mb 0.00 in0.0 mm 0.00 in/hr0.0 mm/hr 0.00 in0.0 mm
10:55 AM 82.2°F27.9°C 68.8°F20.4°C 64% Calm Calm -- 29.86 in1011.2 mb 0.00 in0.0 mm 0.00 in/hr0.0 mm/hr 0.00 in0.0 mm
10:57 AM 82.2°F27.9°C 68.8°F20.4°C 64% Calm Calm -- 29.86 in1011.2 mb 0.00 in0.0 mm 0.00 in/hr0.0 mm/hr 0.00 in0.0 mm
10:59 AM 82.2°F27.9°C 68.8°F20.4°C 64% Calm Calm -- 29.86 in1011.2 mb 0.00 in0.0 mm 0.00 in/hr0.0 mm/hr 0.00 in0.0 mm
11:01 AM 82.2°F27.9°C 68.8°F20.4°C 64% Calm Calm -- 29.87 in1011.5 mb 0.00 in0.0 mm 0.00 in/hr0.0 mm/hr 0.00 in0.0 mm
11:03 AM 82.2°F27.9°C 68.8°F20.4°C 64% Calm Calm -- 29.86 in1011.2 mb 0.00 in0.0 mm 0.00 in/hr0.0 mm/hr 0.00 in0.0 mm
11:05 AM 82.2°F27.9°C 68.8°F20.4°C 64% Calm Calm -- 29.86 in1011.2 mb 0.00 in0.0 mm 0.00 in/hr0.0 mm/hr 0.00 in0.0 mm
11:07 AM 82.2°F27.9°C 68.8°F20.4°C 64% Calm Calm -- 29.86 in1011.2 mb 0.00 in0.0 mm 0.00 in/hr0.0 mm/hr 0.00 in0.0 mm
11:09 AM 82.2°F27.9°C 68.4°F20.2°C 63% Calm Calm -- 29.86 in1011.2 mb 0.00 in0.0 mm 0.00 in/hr0.0 mm/hr 0.00 in0.0 mm
11:11 AM 82.2°F27.9°C 68.8°F20.4°C 64% Calm Calm -- 29.86 in1011.2 mb 0.00 in0.0 mm 0.00 in/hr0.0 mm/hr 0.00 in0.0 mm
11:13 AM 82.6°F28.1°C 69.2°F20.7°C 64% Calm Calm -- 29.86 in1011.2 mb 0.00 in0.0 mm 0.00 in/hr0.0 mm/hr 0.00 in0.0 mm
11:15 AM 82.6°F28.1°C 69.2°F20.7°C 64% Calm Calm -- 29.86 in1011.2 mb 0.00 in0.0 mm 0.00 in/hr0.0 mm/hr 0.00 in0.0 mm
11:17 AM 82.6°F28.1°C 69.2°F20.7°C 64% 0.9 mph SE1.4 kmh SE 0.9 mph1.4 kmh 29.86 in1011.2 mb 0.00 in0.0 mm 0.00 in/hr0.0 mm/hr 0.00 in0.0 mm
11:19 AM 82.6°F28.1°C 69.2°F20.7°C 64% Calm Calm 0.9 mph1.4 kmh 29.86 in1011.2 mb 0.00 in0.0 mm 0.00 in/hr0.0 mm/hr 0.00 in0.0 mm
11:21 AM 82.6°F28.1°C 69.2°F20.7°C 64% Calm Calm 0.9 mph1.4 kmh 29.86 in1011.2 mb 0.00 in0.0 mm 0.00 in/hr0.0 mm/hr 0.00 in0.0 mm
11:23 AM 82.6°F28.1°C 69.2°F20.7°C 64% Calm Calm 0.9 mph1.4 kmh 29.85 in1010.8 mb 0.00 in0.0 mm 0.00 in/hr0.0 mm/hr 0.00 in0.0 mm
11:25 AM 82.6°F28.1°C 69.2°F20.7°C 64% 4.7 mph SSW7.6 kmh SSW 4.7 mph7.6 kmh 29.86 in1011.2 mb 0.00 in0.0 mm 0.00 in/hr0.0 mm/hr 0.00 in0.0 mm
11:27 AM 82.8°F28.2°C 69.3°F20.7°C 64% Calm Calm 4.7 mph7.6 kmh 29.85 in1010.8 mb 0.00 in0.0 mm 0.00 in/hr0.0 mm/hr 0.00 in0.0 mm
11:29 AM 82.9°F28.3°C 69.0°F20.6°C 63% Calm Calm 4.7 mph7.6 kmh 29.85 in1010.8 mb 0.00 in0.0 mm 0.00 in/hr0.0 mm/hr 0.00 in0.0 mm
11:31 AM 82.9°F28.3°C 69.0°F20.6°C 63% Calm Calm 4.7 mph7.6 kmh 29.85 in1010.8 mb 0.00 in0.0 mm 0.00 in/hr0.0 mm/hr 0.00 in0.0 mm
11:33 AM 82.9°F28.3°C 69.0°F20.6°C 63% Calm Calm 4.7 mph7.6 kmh 29.86 in1011.2 mb 0.00 in0.0 mm 0.00 in/hr0.0 mm/hr 0.00 in0.0 mm
11:35 AM 82.9°F28.3°C 69.0°F20.6°C 63% Calm Calm 4.7 mph7.6 kmh 29.86 in1011.2 mb 0.00 in0.0 mm 0.00 in/hr0.0 mm/hr 0.00 in0.0 mm
11:37 AM 82.9°F28.3°C 69.0°F20.6°C 63% Calm Calm -- 29.86 in1011.2 mb 0.00 in0.0 mm 0.00 in/hr0.0 mm/hr 0.00 in0.0 mm
11:39 AM 82.9°F28.3°C 69.0°F20.6°C 63% Calm Calm -- 29.86 in1011.2 mb 0.00 in0.0 mm 0.00 in/hr0.0 mm/hr 0.00 in0.0 mm
11:41 AM 82.8°F28.2°C 68.9°F20.5°C 63% Calm Calm -- 29.86 in1011.2 mb 0.00 in0.0 mm 0.00 in/hr0.0 mm/hr 0.00 in0.0 mm
11:43 AM 82.8°F28.2°C 68.9°F20.5°C 63% Calm Calm -- 29.86 in1011.2 mb 0.00 in0.0 mm 0.00 in/hr0.0 mm/hr 0.00 in0.0 mm
11:45 AM 82.8°F28.2°C 68.9°F20.5°C 63% Calm Calm -- 29.86 in1011.2 mb 0.00 in0.0 mm 0.00 in/hr0.0 mm/hr 0.00 in0.0 mm
11:47 AM 82.8°F28.2°C 68.9°F20.5°C 63% Calm Calm -- 29.85 in1010.8 mb 0.00 in0.0 mm 0.00 in/hr0.0 mm/hr 0.00 in0.0 mm
11:49 AM 82.8°F28.2°C 68.9°F20.5°C 63% 3.1 mph E5.0 kmh E 3.1 mph5.0 kmh 29.86 in1011.2 mb 0.00 in0.0 mm 0.00 in/hr0.0 mm/hr 0.00 in0.0 mm
11:51 AM 82.6°F28.1°C 68.7°F20.4°C 63% 2.0 mph E3.2 kmh E 3.1 mph5.0 kmh 29.86 in1011.2 mb 0.00 in0.0 mm 0.00 in/hr0.0 mm/hr 0.00 in0.0 mm
11:53 AM 82.6°F28.1°C 68.7°F20.4°C 63% 0.9 mph E1.4 kmh E 3.1 mph5.0 kmh 29.85 in1010.8 mb 0.00 in0.0 mm 0.00 in/hr0.0 mm/hr 0.00 in0.0 mm
11:55 AM 82.6°F28.1°C 68.7°F20.4°C 63% Calm Calm 3.1 mph5.0 kmh 29.86 in1011.2 mb 0.00 in0.0 mm 0.00 in/hr0.0 mm/hr 0.00 in0.0 mm
11:57 AM 82.6°F28.1°C 69.2°F20.7°C 64% Calm Calm 3.1 mph5.0 kmh 29.85 in1010.8 mb 0.00 in0.0 mm 0.00 in/hr0.0 mm/hr 0.00 in0.0 mm
11:59 AM 82.6°F28.1°C 69.2°F20.7°C 64% Calm Calm 3.1 mph5.0 kmh 29.85 in1010.8 mb 0.00 in0.0 mm 0.00 in/hr0.0 mm/hr 0.00 in0.0 mm
12:01 PM 82.6°F28.1°C 69.2°F20.7°C 64% Calm Calm 2.0 mph3.2 kmh 29.85 in1010.8 mb 0.00 in0.0 mm 0.00 in/hr0.0 mm/hr 0.00 in0.0 mm
12:03 PM 82.6°F28.1°C 69.2°F20.7°C 64% Calm Calm 0.9 mph1.4 kmh 29.85 in1010.8 mb 0.00 in0.0 mm 0.00 in/hr0.0 mm/hr 0.00 in0.0 mm
12:05 PM 82.6°F28.1°C 69.2°F20.7°C 64% Calm Calm -- 29.85 in1010.8 mb 0.00 in0.0 mm 0.00 in/hr0.0 mm/hr 0.00 in0.0 mm
12:07 PM 82.6°F28.1°C 69.2°F20.7°C 64% Calm Calm -- 29.84 in1010.5 mb 0.00 in0.0 mm 0.00 in/hr0.0 mm/hr 0.00 in0.0 mm
12:09 PM 82.6°F28.1°C 69.2°F20.7°C 64% 0.7 mph S1.1 kmh S 0.7 mph1.1 kmh 29.84 in1010.5 mb 0.00 in0.0 mm 0.00 in/hr0.0 mm/hr 0.00 in0.0 mm
12:11 PM 82.6°F28.1°C 69.2°F20.7°C 64% Calm Calm 0.7 mph1.1 kmh 29.85 in1010.8 mb 0.00 in0.0 mm 0.00 in/hr0.0 mm/hr 0.00 in0.0 mm
12:13 PM 82.6°F28.1°C 69.2°F20.7°C 64% Calm Calm 0.7 mph1.1 kmh 29.84 in1010.5 mb 0.00 in0.0 mm 0.00 in/hr0.0 mm/hr 0.00 in0.0 mm
12:15 PM 82.8°F28.2°C 69.3°F20.7°C 64% Calm Calm 0.7 mph1.1 kmh 29.84 in1010.5 mb 0.00 in0.0 mm 0.00 in/hr0.0 mm/hr 0.00 in0.0 mm
12:17 PM 82.9°F28.3°C 69.0°F20.6°C 63% 1.1 mph S1.8 kmh S 1.1 mph1.8 kmh 29.84 in1010.5 mb 0.00 in0.0 mm 0.00 in/hr0.0 mm/hr 0.00 in0.0 mm
12:19 PM 82.9°F28.3°C 69.0°F20.6°C 63% 1.1 mph SSE1.8 kmh SSE 1.1 mph1.8 kmh 29.84 in1010.5 mb 0.00 in0.0 mm 0.00 in/hr0.0 mm/hr 0.00 in0.0 mm
12:21 PM 82.9°F28.3°C 69.0°F20.6°C 63% 1.6 mph S2.6 kmh S 1.6 mph2.6 kmh 29.84 in1010.5 mb 0.00 in0.0 mm 0.00 in/hr0.0 mm/hr 0.00 in0.0 mm
12:23 PM 82.9°F28.3°C 68.6°F20.3°C 62% Calm Calm 1.6 mph2.6 kmh 29.84 in1010.5 mb 0.00 in0.0 mm 0.00 in/hr0.0 mm/hr 0.00 in0.0 mm
12:25 PM 83.1°F28.4°C 68.7°F20.4°C 62% Calm Calm 1.6 mph2.6 kmh 29.84 in1010.5 mb 0.00 in0.0 mm 0.00 in/hr0.0 mm/hr 0.00 in0.0 mm
12:27 PM 83.1°F28.4°C 68.7°F20.4°C 62% Calm Calm 1.6 mph2.6 kmh 29.84 in1010.5 mb 0.00 in0.0 mm 0.00 in/hr0.0 mm/hr 0.00 in0.0 mm
12:29 PM 83.1°F28.4°C 68.7°F20.4°C 62% 5.4 mph SW8.7 kmh SW 5.4 mph8.7 kmh 29.84 in1010.5 mb 0.00 in0.0 mm 0.00 in/hr0.0 mm/hr 0.00 in0.0 mm
12:31 PM 83.1°F28.4°C 68.7°F20.4°C 62% Calm Calm 5.4 mph8.7 kmh 29.84 in1010.5 mb 0.00 in0.0 mm 0.00 in/hr0.0 mm/hr 0.00 in0.0 mm
12:33 PM 82.9°F28.3°C 68.6°F20.3°C 62% Calm Calm 5.4 mph8.7 kmh 29.84 in1010.5 mb 0.00 in0.0 mm 0.00 in/hr0.0 mm/hr 0.00 in0.0 mm
12:35 PM 82.9°F28.3°C 68.6°F20.3°C 62% Calm Calm 5.4 mph8.7 kmh 29.83 in1010.2 mb 0.00 in0.0 mm 0.00 in/hr0.0 mm/hr 0.00 in0.0 mm
12:37 PM 83.1°F28.4°C 68.7°F20.4°C 62% Calm Calm 5.4 mph8.7 kmh 29.83 in1010.2 mb 0.00 in0.0 mm 0.00 in/hr0.0 mm/hr 0.00 in0.0 mm
12:39 PM 83.1°F28.4°C 68.7°F20.4°C 62% Calm Calm 5.4 mph8.7 kmh 29.83 in1010.2 mb 0.00 in0.0 mm 0.00 in/hr0.0 mm/hr 0.00 in0.0 mm
12:41 PM 83.1°F28.4°C 68.7°F20.4°C 62% Calm Calm -- 29.83 in1010.2 mb 0.00 in0.0 mm 0.00 in/hr0.0 mm/hr 0.00 in0.0 mm
12:43 PM 83.1°F28.4°C 68.7°F20.4°C 62% Calm Calm -- 29.83 in1010.2 mb 0.00 in0.0 mm 0.00 in/hr0.0 mm/hr 0.00 in0.0 mm
12:45 PM 83.1°F28.4°C 68.7°F20.4°C 62% Calm Calm -- 29.83 in1010.2 mb 0.00 in0.0 mm 0.00 in/hr0.0 mm/hr 0.00 in0.0 mm
12:47 PM 83.1°F28.4°C 68.7°F20.4°C 62% Calm Calm -- 29.83 in1010.2 mb 0.00 in0.0 mm 0.00 in/hr0.0 mm/hr 0.00 in0.0 mm
12:49 PM 83.1°F28.4°C 68.7°F20.4°C 62% 7.8 mph ENE12.6 kmh ENE 7.8 mph12.6 kmh 29.84 in1010.5 mb 0.00 in0.0 mm 0.00 in/hr0.0 mm/hr 0.00 in0.0 mm
12:51 PM 83.1°F28.4°C 68.7°F20.4°C 62% 8.5 mph E13.7 kmh E 8.5 mph13.7 kmh 29.84 in1010.5 mb 0.00 in0.0 mm 0.00 in/hr0.0 mm/hr 0.00 in0.0 mm
12:53 PM 82.9°F28.3°C 68.6°F20.3°C 62% 6.7 mph ESE10.8 kmh ESE 8.5 mph13.7 kmh 29.84 in1010.5 mb 0.00 in0.0 mm 0.00 in/hr0.0 mm/hr 0.00 in0.0 mm
12:55 PM 82.8°F28.2°C 68.4°F20.2°C 62% 2.7 mph ESE4.3 kmh ESE 8.5 mph13.7 kmh 29.84 in1010.5 mb 0.00 in0.0 mm 0.00 in/hr0.0 mm/hr 0.00 in0.0 mm
12:57 PM 82.6°F28.1°C 68.2°F20.1°C 62% Calm Calm 8.5 mph13.7 kmh 29.84 in1010.5 mb 0.00 in0.0 mm 0.00 in/hr0.0 mm/hr 0.00 in0.0 mm
12:59 PM 82.2°F27.9°C 67.9°F19.9°C 62% 1.3 mph ESE2.1 kmh ESE 8.5 mph13.7 kmh 29.84 in1010.5 mb 0.00 in0.0 mm 0.00 in/hr0.0 mm/hr 0.00 in0.0 mm
01:01 PM 82.0°F27.8°C 68.2°F20.1°C 63% 3.6 mph SE5.8 kmh SE 8.5 mph13.7 kmh 29.83 in1010.2 mb 0.00 in0.0 mm 0.00 in/hr0.0 mm/hr 0.00 in0.0 mm
01:03 PM 81.9°F27.7°C 68.0°F20.0°C 63% 2.9 mph E4.7 kmh E 6.7 mph10.8 kmh 29.83 in1010.2 mb 0.00 in0.0 mm 0.00 in/hr0.0 mm/hr 0.00 in0.0 mm
01:05 PM 81.9°F27.7°C 68.0°F20.0°C 63% 2.9 mph E4.7 kmh E 3.6 mph5.8 kmh 29.83 in1010.2 mb 0.00 in0.0 mm 0.00 in/hr0.0 mm/hr 0.00 in0.0 mm
01:07 PM 81.7°F27.6°C 68.3°F20.2°C 64% 6.0 mph ENE9.7 kmh ENE 6.0 mph9.7 kmh 29.83 in1010.2 mb 0.00 in0.0 mm 0.00 in/hr0.0 mm/hr 0.00 in0.0 mm
01:09 PM 81.3°F27.4°C 68.4°F20.2°C 65% 3.8 mph E6.1 kmh E 6.0 mph9.7 kmh 29.84 in1010.5 mb 0.00 in0.0 mm 0.00 in/hr0.0 mm/hr 0.00 in0.0 mm
01:11 PM 81.1°F27.3°C 68.3°F20.2°C 65% 5.1 mph E8.2 kmh E 6.0 mph9.7 kmh 29.84 in1010.5 mb 0.00 in0.0 mm 0.00 in/hr0.0 mm/hr 0.00 in0.0 mm
01:13 PM 80.8°F27.1°C 68.4°F20.2°C 66% 5.4 mph SE8.7 kmh SE 6.0 mph9.7 kmh 29.84 in1010.5 mb 0.00 in0.0 mm 0.00 in/hr0.0 mm/hr 0.00 in0.0 mm
01:15 PM 80.4°F26.9°C 68.0°F20.0°C 66% 8.9 mph SE14.3 kmh SE 8.9 mph14.3 kmh 29.83 in1010.2 mb 0.00 in0.0 mm 0.00 in/hr0.0 mm/hr 0.00 in0.0 mm
01:17 PM 80.2°F26.8°C 67.8°F19.9°C 66% 3.8 mph SE6.1 kmh SE 8.9 mph14.3 kmh 29.83 in1010.2 mb 0.00 in0.0 mm 0.00 in/hr0.0 mm/hr 0.00 in0.0 mm
01:19 PM 80.1°F26.7°C 68.1°F20.1°C 67% 3.8 mph SE6.1 kmh SE 8.9 mph14.3 kmh 29.83 in1010.2 mb 0.00 in0.0 mm 0.00 in/hr0.0 mm/hr 0.00 in0.0 mm
01:21 PM 80.1°F26.7°C 68.1°F20.1°C 67% 2.5 mph ESE4.0 kmh ESE 8.9 mph14.3 kmh 29.83 in1010.2 mb 0.00 in0.0 mm 0.00 in/hr0.0 mm/hr 0.00 in0.0 mm
01:23 PM 80.1°F26.7°C 68.1°F20.1°C 67% 2.5 mph E4.0 kmh E 8.9 mph14.3 kmh 29.83 in1010.2 mb 0.00 in0.0 mm 0.00 in/hr0.0 mm/hr 0.00 in0.0 mm
01:25 PM 80.1°F26.7°C 68.1°F20.1°C 67% 2.5 mph ENE4.0 kmh ENE 8.9 mph14.3 kmh 29.83 in1010.2 mb 0.00 in0.0 mm 0.00 in/hr0.0 mm/hr 0.00 in0.0 mm
01:27 PM 79.9°F26.6°C 67.9°F19.9°C 67% 6.0 mph NE9.7 kmh NE 6.0 mph9.7 kmh 29.83 in1010.2 mb 0.00 in0.0 mm 0.00 in/hr0.0 mm/hr 0.00 in0.0 mm
01:29 PM 79.7°F26.5°C 67.3°F19.6°C 66% 5.1 mph NE8.2 kmh NE 6.0 mph9.7 kmh 29.83 in1010.2 mb 0.00 in0.0 mm 0.00 in/hr0.0 mm/hr 0.00 in0.0 mm
01:31 PM 79.7°F26.5°C 67.8°F19.9°C 67% Calm Calm 6.0 mph9.7 kmh 29.83 in1010.2 mb 0.00 in0.0 mm 0.00 in/hr0.0 mm/hr 0.00 in0.0 mm
01:33 PM 79.7°F26.5°C 67.8°F19.9°C 67% 4.7 mph NE7.6 kmh NE 6.0 mph9.7 kmh 29.83 in1010.2 mb 0.00 in0.0 mm 0.00 in/hr0.0 mm/hr 0.00 in0.0 mm
01:35 PM 79.7°F26.5°C 67.8°F19.9°C 67% 4.7 mph NE7.6 kmh NE 6.0 mph9.7 kmh 29.83 in1010.2 mb 0.00 in0.0 mm 0.00 in/hr0.0 mm/hr 0.00 in0.0 mm
01:37 PM 79.7°F26.5°C 67.8°F19.9°C 67% 4.5 mph E7.2 kmh E 6.0 mph9.7 kmh 29.83 in1010.2 mb 0.00 in0.0 mm 0.00 in/hr0.0 mm/hr 0.00 in0.0 mm
01:39 PM 79.5°F26.4°C 67.6°F19.8°C 67% 4.5 mph ESE7.2 kmh ESE 5.1 mph8.2 kmh 29.83 in1010.2 mb 0.00 in0.0 mm 0.00 in/hr0.0 mm/hr 0.00 in0.0 mm
01:41 PM 79.5°F26.4°C 67.6°F19.8°C 67% 2.7 mph SE4.3 kmh SE 4.7 mph7.6 kmh 29.83 in1010.2 mb 0.00 in0.0 mm 0.00 in/hr0.0 mm/hr 0.00 in0.0 mm
01:43 PM 79.5°F26.4°C 67.6°F19.8°C 67% 4.7 mph SE7.6 kmh SE 4.7 mph7.6 kmh 29.83 in1010.2 mb 0.00 in0.0 mm 0.00 in/hr0.0 mm/hr 0.00 in0.0 mm
01:45 PM 79.5°F26.4°C 67.6°F19.8°C 67% 6.3 mph ESE10.1 kmh ESE 6.3 mph10.1 kmh 29.83 in1010.2 mb 0.00 in0.0 mm 0.00 in/hr0.0 mm/hr 0.00 in0.0 mm
01:47 PM 79.3°F26.3°C 67.0°F19.4°C 66% 1.1 mph E1.8 kmh E 6.3 mph10.1 kmh 29.83 in1010.2 mb 0.00 in0.0 mm 0.00 in/hr0.0 mm/hr 0.00 in0.0 mm
01:49 PM 79.3°F26.3°C 67.0°F19.4°C 66% 2.7 mph ENE4.3 kmh ENE 6.3 mph10.1 kmh 29.83 in1010.2 mb 0.00 in0.0 mm 0.00 in/hr0.0 mm/hr 0.00 in0.0 mm
01:51 PM 79.3°F26.3°C 67.0°F19.4°C 66% 2.9 mph NE4.7 kmh NE 6.3 mph10.1 kmh 29.83 in1010.2 mb 0.00 in0.0 mm 0.00 in/hr0.0 mm/hr 0.00 in0.0 mm
01:53 PM 79.2°F26.2°C 66.8°F19.3°C 66% 2.9 mph NNE4.7 kmh NNE 6.3 mph10.1 kmh 29.83 in1010.2 mb 0.00 in0.0 mm 0.00 in/hr0.0 mm/hr 0.00 in0.0 mm
01:55 PM 79.2°F26.2°C 66.8°F19.3°C 66% 4.3 mph N6.9 kmh N 6.3 mph10.1 kmh 29.83 in1010.2 mb 0.00 in0.0 mm 0.00 in/hr0.0 mm/hr 0.00 in0.0 mm
01:57 PM 79.0°F26.1°C 66.6°F19.2°C 66% 2.0 mph NE3.2 kmh NE 4.3 mph6.9 kmh 29.83 in1010.2 mb 0.00 in0.0 mm 0.00 in/hr0.0 mm/hr 0.00 in0.0 mm
01:59 PM 79.0°F26.1°C 66.6°F19.2°C 66% 1.1 mph NE1.8 kmh NE 4.3 mph6.9 kmh 29.83 in1010.2 mb 0.00 in0.0 mm 0.00 in/hr0.0 mm/hr 0.00 in0.0 mm
02:01 PM 79.0°F26.1°C 66.6°F19.2°C 66% 5.4 mph E8.7 kmh E 5.4 mph8.7 kmh 29.83 in1010.2 mb 0.00 in0.0 mm 0.00 in/hr0.0 mm/hr 0.00 in0.0 mm
02:03 PM 78.6°F25.9°C 66.3°F19.1°C 66% 2.5 mph ESE4.0 kmh ESE 5.4 mph8.7 kmh 29.83 in1010.2 mb 0.00 in0.0 mm 0.00 in/hr0.0 mm/hr 0.00 in0.0 mm
02:05 PM 78.6°F25.9°C 66.3°F19.1°C 66% 2.5 mph ESE4.0 kmh ESE 5.4 mph8.7 kmh 29.83 in1010.2 mb 0.00 in0.0 mm 0.00 in/hr0.0 mm/hr 0.00 in0.0 mm
02:07 PM 78.6°F25.9°C 66.3°F19.1°C 66% 2.5 mph E4.0 kmh E 5.4 mph8.7 kmh 29.83 in1010.2 mb 0.00 in0.0 mm 0.00 in/hr0.0 mm/hr 0.00 in0.0 mm
02:09 PM 78.6°F25.9°C 66.3°F19.1°C 66% 2.5 mph E4.0 kmh E 5.4 mph8.7 kmh 29.83 in1010.2 mb 0.00 in0.0 mm 0.00 in/hr0.0 mm/hr 0.00 in0.0 mm
02:11 PM 78.4°F25.8°C 66.6°F19.2°C 67% 2.5 mph E4.0 kmh E 5.4 mph8.7 kmh 29.82 in1009.8 mb 0.00 in0.0 mm 0.00 in/hr0.0 mm/hr 0.00 in0.0 mm
02:13 PM 78.4°F25.8°C 66.6°F19.2°C 67% 3.6 mph ENE5.8 kmh ENE 3.6 mph5.8 kmh 29.83 in1010.2 mb 0.00 in0.0 mm 0.00 in/hr0.0 mm/hr 0.00 in0.0 mm
02:15 PM 78.4°F25.8°C 66.6°F19.2°C 67% 3.6 mph NE5.8 kmh NE 3.6 mph5.8 kmh 29.83 in1010.2 mb 0.00 in0.0 mm 0.00 in/hr0.0 mm/hr 0.00 in0.0 mm
02:17 PM 78.4°F25.8°C 66.6°F19.2°C 67% 3.6 mph NE5.8 kmh NE 3.6 mph5.8 kmh 29.83 in1010.2 mb 0.00 in0.0 mm 0.00 in/hr0.0 mm/hr 0.00 in0.0 mm
02:19 PM 78.1°F25.6°C 66.2°F19.0°C 67% 3.6 mph NE5.8 kmh NE 3.6 mph5.8 kmh 29.83 in1010.2 mb 0.00 in0.0 mm 0.00 in/hr0.0 mm/hr 0.00 in0.0 mm
02:21 PM 78.1°F25.6°C 66.2°F19.0°C 67% 3.6 mph NE5.8 kmh NE 3.6 mph5.8 kmh 29.83 in1010.2 mb 0.00 in0.0 mm 0.00 in/hr0.0 mm/hr 0.00 in0.0 mm
02:23 PM 78.1°F25.6°C 66.2°F19.0°C 67% 2.9 mph NE4.7 kmh NE 3.6 mph5.8 kmh 29.83 in1010.2 mb 0.00 in0.0 mm 0.00 in/hr0.0 mm/hr 0.00 in0.0 mm
02:25 PM 77.5°F25.3°C 65.7°F18.7°C 67% 2.9 mph NE4.7 kmh NE 3.6 mph5.8 kmh 29.83 in1010.2 mb 0.00 in0.0 mm 0.00 in/hr0.0 mm/hr 0.00 in0.0 mm
02:27 PM 77.5°F25.3°C 65.7°F18.7°C 67% 3.1 mph E5.0 kmh E 3.6 mph5.8 kmh 29.82 in1009.8 mb 0.00 in0.0 mm 0.00 in/hr0.0 mm/hr 0.00 in0.0 mm
02:29 PM 77.5°F25.3°C 65.7°F18.7°C 67% 3.1 mph E5.0 kmh E 3.6 mph5.8 kmh 29.82 in1009.8 mb 0.00 in0.0 mm 0.00 in/hr0.0 mm/hr 0.00 in0.0 mm
02:31 PM 77.5°F25.3°C 65.7°F18.7°C 67% 2.9 mph ESE4.7 kmh ESE 3.6 mph5.8 kmh 29.82 in1009.8 mb 0.00 in0.0 mm 0.00 in/hr0.0 mm/hr 0.00 in0.0 mm
02:33 PM 77.4°F25.2°C 65.5°F18.6°C 67% 5.6 mph SE9.0 kmh SE 5.6 mph9.0 kmh 29.82 in1009.8 mb 0.00 in0.0 mm 0.00 in/hr0.0 mm/hr 0.00 in0.0 mm
02:35 PM 77.4°F25.2°C 65.5°F18.6°C 67% 5.6 mph SE9.0 kmh SE 5.6 mph9.0 kmh 29.82 in1009.8 mb 0.00 in0.0 mm 0.00 in/hr0.0 mm/hr 0.00 in0.0 mm
02:37 PM 77.2°F25.1°C 65.4°F18.6°C 67% 2.9 mph SE4.7 kmh SE 5.6 mph9.0 kmh 29.83 in1010.2 mb 0.00 in0.0 mm 0.00 in/hr0.0 mm/hr 0.00 in0.0 mm
02:39 PM 77.2°F25.1°C 65.4°F18.6°C 67% 6.3 mph SE10.1 kmh SE 6.3 mph10.1 kmh 29.82 in1009.8 mb 0.00 in0.0 mm 0.00 in/hr0.0 mm/hr 0.00 in0.0 mm
02:41 PM 77.2°F25.1°C 65.4°F18.6°C 67% 5.1 mph SE8.2 kmh SE 6.3 mph10.1 kmh 29.83 in1010.2 mb 0.00 in0.0 mm 0.00 in/hr0.0 mm/hr 0.00 in0.0 mm
02:43 PM 77.0°F25.0°C 65.2°F18.4°C 67% 1.1 mph ESE1.8 kmh ESE 6.3 mph10.1 kmh 29.83 in1010.2 mb 0.00 in0.0 mm 0.00 in/hr0.0 mm/hr 0.00 in0.0 mm
02:45 PM 76.8°F24.9°C 65.0°F18.3°C 67% 5.1 mph ESE8.2 kmh ESE 6.3 mph10.1 kmh 29.83 in1010.2 mb 0.00 in0.0 mm 0.00 in/hr0.0 mm/hr 0.00 in0.0 mm
02:47 PM 76.8°F24.9°C 65.0°F18.3°C 67% 2.2 mph E3.5 kmh E 6.3 mph10.1 kmh 29.83 in1010.2 mb 0.00 in0.0 mm 0.00 in/hr0.0 mm/hr 0.00 in0.0 mm
02:49 PM 76.6°F24.8°C 65.3°F18.5°C 68% 13.0 mph SE20.9 kmh SE 13.0 mph20.9 kmh 29.83 in1010.2 mb 0.00 in0.0 mm 0.00 in/hr0.0 mm/hr 0.00 in0.0 mm
02:51 PM 76.6°F24.8°C 65.3°F18.5°C 68% 13.0 mph SE20.9 kmh SE 13.0 mph20.9 kmh 29.83 in1010.2 mb 0.00 in0.0 mm 0.00 in/hr0.0 mm/hr 0.00 in0.0 mm
02:53 PM 76.3°F24.6°C 64.9°F18.3°C 68% 13.4 mph SE21.6 kmh SE 13.4 mph21.6 kmh 29.83 in1010.2 mb 0.00 in0.0 mm 0.00 in/hr0.0 mm/hr 0.00 in0.0 mm
02:55 PM 76.3°F24.6°C 64.9°F18.3°C 68% 13.4 mph SE21.6 kmh SE 13.4 mph21.6 kmh 29.83 in1010.2 mb 0.00 in0.0 mm 0.00 in/hr0.0 mm/hr 0.00 in0.0 mm
02:57 PM 75.9°F24.4°C 64.6°F18.1°C 68% 3.8 mph SE6.1 kmh SE 13.4 mph21.6 kmh 29.84 in1010.5 mb 0.00 in0.0 mm 0.00 in/hr0.0 mm/hr 0.00 in0.0 mm
02:59 PM 75.9°F24.4°C 64.6°F18.1°C 68% 3.1 mph SE5.0 kmh SE 13.4 mph21.6 kmh 29.84 in1010.5 mb 0.00 in0.0 mm 0.00 in/hr0.0 mm/hr 0.00 in0.0 mm
03:01 PM 75.7°F24.3°C 64.4°F18.0°C 68% 1.8 mph SE2.9 kmh SE 13.4 mph21.6 kmh 29.84 in1010.5 mb 0.00 in0.0 mm 0.00 in/hr0.0 mm/hr 0.00 in0.0 mm
03:03 PM 75.6°F24.2°C 64.3°F17.9°C 68% Calm Calm 13.4 mph21.6 kmh 29.84 in1010.5 mb 0.00 in0.0 mm 0.00 in/hr0.0 mm/hr 0.00 in0.0 mm
03:05 PM 75.6°F24.2°C 64.3°F17.9°C 69% Calm Calm 13.4 mph21.6 kmh 29.85 in1010.8 mb 0.00 in0.0 mm 0.00 in/hr0.0 mm/hr 0.00 in0.0 mm
03:07 PM 75.6°F24.2°C 64.7°F18.2°C 69% Calm Calm 3.8 mph6.1 kmh 29.84 in1010.5 mb 0.00 in0.0 mm 0.00 in/hr0.0 mm/hr 0.00 in0.0 mm
03:09 PM 75.6°F24.2°C 64.7°F18.2°C 69% 2.9 mph S4.7 kmh S 3.1 mph5.0 kmh 29.85 in1010.8 mb 0.00 in0.0 mm 0.00 in/hr0.0 mm/hr 0.00 in0.0 mm
03:11 PM 75.4°F24.1°C 64.9°F18.3°C 70% Calm Calm 2.9 mph4.7 kmh 29.85 in1010.8 mb 0.00 in0.0 mm 0.00 in/hr0.0 mm/hr 0.00 in0.0 mm
03:13 PM 75.0°F23.9°C 65.0°F18.3°C 71% Calm Calm 2.9 mph4.7 kmh 29.85 in1010.8 mb 0.00 in0.0 mm 0.00 in/hr0.0 mm/hr 0.00 in0.0 mm
03:15 PM 74.8°F23.8°C 64.8°F18.2°C 71% Calm Calm 2.9 mph4.7 kmh 29.85 in1010.8 mb 0.02 in0.5 mm 0.60 in/hr15.2 mm/hr 0.02 in0.5 mm
03:17 PM 74.7°F23.7°C 65.0°F18.3°C 72% Calm Calm 2.9 mph4.7 kmh 29.86 in1011.2 mb 0.02 in0.5 mm 0.00 in/hr0.0 mm/hr 0.02 in0.5 mm
03:19 PM 74.5°F23.6°C 65.3°F18.5°C 73% Calm Calm 2.9 mph4.7 kmh 29.86 in1011.2 mb 0.04 in1.0 mm 0.60 in/hr15.2 mm/hr 0.04 in1.0 mm
03:21 PM 74.3°F23.5°C 65.5°F18.6°C 74% Calm Calm -- 29.86 in1011.2 mb 0.06 in1.5 mm 0.60 in/hr15.2 mm/hr 0.06 in1.5 mm
03:23 PM 74.1°F23.4°C 65.3°F18.5°C 74% Calm Calm -- 29.86 in1011.2 mb 0.06 in1.5 mm 0.00 in/hr0.0 mm/hr 0.06 in1.5 mm
03:25 PM 73.9°F23.3°C 65.5°F18.6°C 75% Calm Calm -- 29.86 in1011.2 mb 0.08 in2.0 mm 0.60 in/hr15.2 mm/hr 0.08 in2.0 mm
03:27 PM 73.8°F23.2°C 65.3°F18.5°C 75% Calm Calm -- 29.86 in1011.2 mb 0.12 in3.0 mm 1.20 in/hr30.5 mm/hr 0.12 in3.0 mm
03:29 PM 73.6°F23.1°C 65.5°F18.6°C 76% Calm Calm -- 29.86 in1011.2 mb 0.14 in3.6 mm 0.60 in/hr15.2 mm/hr 0.14 in3.6 mm
03:31 PM 73.4°F23.0°C 65.4°F18.6°C 76% Calm Calm -- 29.86 in1011.2 mb 0.14 in3.6 mm 0.00 in/hr0.0 mm/hr 0.16 in4.1 mm
03:33 PM 73.2°F22.9°C 65.6°F18.7°C 77% Calm Calm -- 29.86 in1011.2 mb 0.16 in4.1 mm 0.60 in/hr15.2 mm/hr 0.18 in4.6 mm
03:35 PM 73.2°F22.9°C 65.6°F18.7°C 77% Calm Calm -- 29.87 in1011.5 mb 0.18 in4.6 mm 0.60 in/hr15.2 mm/hr 0.20 in5.1 mm
03:37 PM 73.2°F22.9°C 65.6°F18.7°C 77% Calm Calm -- 29.87 in1011.5 mb 0.20 in5.1 mm 0.60 in/hr15.2 mm/hr 0.20 in5.1 mm
03:39 PM 73.2°F22.9°C 65.6°F18.7°C 77% Calm Calm -- 29.87 in1011.5 mb 0.20 in5.1 mm 0.00 in/hr0.0 mm/hr 0.20 in5.1 mm
03:41 PM 73.2°F22.9°C 65.6°F18.7°C 77% Calm Calm -- 29.87 in1011.5 mb 0.20 in5.1 mm 0.00 in/hr0.0 mm/hr 0.20 in5.1 mm
03:43 PM 73.0°F22.8°C 65.8°F18.8°C 78% Calm Calm -- 29.87 in1011.5 mb 0.22 in5.6 mm 0.60 in/hr15.2 mm/hr 0.22 in5.6 mm
03:45 PM 73.0°F22.8°C 66.1°F18.9°C 79% Calm Calm -- 29.88 in1011.9 mb 0.24 in6.1 mm 0.60 in/hr15.2 mm/hr 0.24 in6.1 mm
03:47 PM 72.9°F22.7°C 66.0°F18.9°C 79% Calm Calm -- 29.87 in1011.5 mb 0.24 in6.1 mm 0.00 in/hr0.0 mm/hr 0.24 in6.1 mm
03:49 PM 73.0°F22.8°C 66.1°F18.9°C 79% Calm Calm -- 29.88 in1011.9 mb 0.24 in6.1 mm 0.00 in/hr0.0 mm/hr 0.24 in6.1 mm
03:51 PM 72.9°F22.7°C 66.3°F19.1°C 80% 2.2 mph SE3.5 kmh SE 2.2 mph3.5 kmh 29.88 in1011.9 mb 0.24 in6.1 mm 0.00 in/hr0.0 mm/hr 0.24 in6.1 mm
03:53 PM 72.9°F22.7°C 66.3°F19.1°C 80% Calm Calm 2.2 mph3.5 kmh 29.88 in1011.9 mb 0.26 in6.6 mm 0.60 in/hr15.2 mm/hr 0.26 in6.6 mm
03:55 PM 72.9°F22.7°C 66.3°F19.1°C 80% 0.7 mph SE1.1 kmh SE 2.2 mph3.5 kmh 29.88 in1011.9 mb 0.26 in6.6 mm 0.00 in/hr0.0 mm/hr 0.26 in6.6 mm
03:57 PM 72.7°F22.6°C 66.2°F19.0°C 80% 1.1 mph SE1.8 kmh SE 2.2 mph3.5 kmh 29.88 in1011.9 mb 0.26 in6.6 mm 0.00 in/hr0.0 mm/hr 0.26 in6.6 mm
03:59 PM 72.7°F22.6°C 66.2°F19.0°C 80% Calm Calm 2.2 mph3.5 kmh 29.88 in1011.9 mb 0.29 in7.4 mm 0.90 in/hr22.9 mm/hr 0.29 in7.4 mm
04:01 PM 72.7°F22.6°C 66.2°F19.0°C 80% 1.3 mph SE2.1 kmh SE 2.2 mph3.5 kmh 29.89 in1012.2 mb 0.29 in7.4 mm 0.00 in/hr0.0 mm/hr 0.31 in7.9 mm
04:03 PM 72.7°F22.6°C 66.5°F19.2°C 81% Calm Calm 1.3 mph2.1 kmh 29.89 in1012.2 mb 0.31 in7.9 mm 0.60 in/hr15.2 mm/hr 0.31 in7.9 mm
04:05 PM 72.3°F22.4°C 66.2°F19.0°C 80% 1.8 mph SE2.9 kmh SE 1.8 mph2.9 kmh 29.90 in1012.5 mb 0.31 in7.9 mm 0.00 in/hr0.0 mm/hr 0.33 in8.4 mm
04:07 PM 72.3°F22.4°C 65.8°F18.8°C 80% 1.8 mph SE2.9 kmh SE 1.8 mph2.9 kmh 29.90 in1012.5 mb 0.33 in8.4 mm 0.60 in/hr15.2 mm/hr 0.33 in8.4 mm
04:09 PM 72.3°F22.4°C 65.8°F18.8°C 80% 1.8 mph SE2.9 kmh SE 1.8 mph2.9 kmh 29.90 in1012.5 mb 0.33 in8.4 mm 0.00 in/hr0.0 mm/hr 0.33 in8.4 mm
04:11 PM 72.0°F22.2°C 65.1°F18.4°C 79% 1.8 mph SE2.9 kmh SE 1.8 mph2.9 kmh 29.90 in1012.5 mb 0.35 in8.9 mm 0.60 in/hr15.2 mm/hr 0.35 in8.9 mm
04:13 PM 71.8°F22.1°C 65.3°F18.5°C 80% 4.0 mph ESE6.4 kmh ESE 4.0 mph6.4 kmh 29.90 in1012.5 mb 0.33 in8.4 mm 0.00 in/hr0.0 mm/hr 0.35 in8.9 mm
04:15 PM 71.4°F21.9°C 64.9°F18.3°C 80% 0.7 mph ESE1.1 kmh ESE 4.0 mph6.4 kmh 29.90 in1012.5 mb 0.35 in8.9 mm 0.60 in/hr15.2 mm/hr 0.37 in9.4 mm
04:17 PM 71.2°F21.8°C 64.8°F18.2°C 80% 1.6 mph ESE2.6 kmh ESE 4.0 mph6.4 kmh 29.90 in1012.5 mb 0.35 in8.9 mm 0.00 in/hr0.0 mm/hr 0.37 in9.4 mm
04:19 PM 71.2°F21.8°C 64.8°F18.2°C 80% 1.6 mph SE2.6 kmh SE 4.0 mph6.4 kmh 29.90 in1012.5 mb 0.33 in8.4 mm 0.00 in/hr0.0 mm/hr 0.37 in9.4 mm
04:21 PM 71.2°F21.8°C 64.8°F18.2°C 80% 1.6 mph SE2.6 kmh SE 4.0 mph6.4 kmh 29.90 in1012.5 mb 0.31 in7.9 mm 0.00 in/hr0.0 mm/hr 0.37 in9.4 mm
04:23 PM 71.2°F21.8°C 64.8°F18.2°C 80% 1.6 mph SE2.6 kmh SE 4.0 mph6.4 kmh 29.90 in1012.5 mb 0.31 in7.9 mm 0.00 in/hr0.0 mm/hr 0.37 in9.4 mm
04:25 PM 71.2°F21.8°C 64.8°F18.2°C 80% 1.6 mph SSE2.6 kmh SSE 1.6 mph2.6 kmh 29.89 in1012.2 mb 0.29 in7.4 mm 0.00 in/hr0.0 mm/hr 0.37 in9.4 mm
04:27 PM 71.2°F21.8°C 64.8°F18.2°C 80% 1.6 mph SSE2.6 kmh SSE 1.6 mph2.6 kmh 29.89 in1012.2 mb 0.24 in6.1 mm 0.00 in/hr0.0 mm/hr 0.37 in9.4 mm
04:29 PM 71.2°F21.8°C 64.8°F18.2°C 80% 1.6 mph SSE2.6 kmh SSE 1.6 mph2.6 kmh 29.89 in1012.2 mb 0.22 in5.6 mm 0.00 in/hr0.0 mm/hr 0.37 in9.4 mm
04:31 PM 70.2°F21.2°C 63.7°F17.6°C 80% 10.1 mph SE16.3 kmh SE 10.1 mph16.3 kmh 29.89 in1012.2 mb 0.22 in5.6 mm 0.00 in/hr0.0 mm/hr 0.37 in9.4 mm
04:33 PM 70.2°F21.2°C 64.1°F17.8°C 81% 4.5 mph SE7.2 kmh SE 10.1 mph16.3 kmh 29.88 in1011.9 mb 0.18 in4.6 mm 0.00 in/hr0.0 mm/hr 0.37 in9.4 mm
04:35 PM 70.0°F21.1°C 63.9°F17.7°C 81% Calm Calm 10.1 mph16.3 kmh 29.88 in1011.9 mb 0.18 in4.6 mm 0.00 in/hr0.0 mm/hr 0.39 in9.9 mm
04:37 PM 69.6°F20.9°C 63.5°F17.5°C 81% Calm Calm 10.1 mph16.3 kmh 29.88 in1011.9 mb 0.18 in4.6 mm 0.00 in/hr0.0 mm/hr 0.39 in9.9 mm
04:39 PM 69.6°F20.9°C 63.5°F17.5°C 81% Calm Calm 10.1 mph16.3 kmh 29.89 in1012.2 mb 0.18 in4.6 mm 0.00 in/hr0.0 mm/hr 0.39 in9.9 mm
04:41 PM 69.6°F20.9°C 63.5°F17.5°C 81% Calm Calm 10.1 mph16.3 kmh 29.89 in1012.2 mb 0.16 in4.1 mm 0.00 in/hr0.0 mm/hr 0.39 in9.9 mm
04:43 PM 69.4°F20.8°C 63.4°F17.4°C 81% Calm Calm 4.5 mph7.2 kmh 29.89 in1012.2 mb 0.14 in3.6 mm 0.00 in/hr0.0 mm/hr 0.39 in9.9 mm
04:45 PM 69.4°F20.8°C 63.4°F17.4°C 81% 2.9 mph E4.7 kmh E 2.9 mph4.7 kmh 29.89 in1012.2 mb 0.16 in4.1 mm 0.60 in/hr15.2 mm/hr 0.41 in10.4 mm
04:47 PM 69.3°F20.7°C 63.2°F17.3°C 81% 5.6 mph E9.0 kmh E 5.6 mph9.0 kmh 29.90 in1012.5 mb 0.16 in4.1 mm 0.00 in/hr0.0 mm/hr 0.41 in10.4 mm
04:49 PM 69.1°F20.6°C 63.4°F17.4°C 82% Calm Calm 5.6 mph9.0 kmh 29.89 in1012.2 mb 0.16 in4.1 mm 0.00 in/hr0.0 mm/hr 0.41 in10.4 mm
04:51 PM 69.1°F20.6°C 63.4°F17.4°C 82% Calm Calm 5.6 mph9.0 kmh 29.90 in1012.5 mb 0.16 in4.1 mm 0.00 in/hr0.0 mm/hr 0.41 in10.4 mm
04:53 PM 68.9°F20.5°C 63.2°F17.3°C 82% Calm Calm 5.6 mph9.0 kmh 29.90 in1012.5 mb 0.16 in4.1 mm 0.00 in/hr0.0 mm/hr 0.43 in10.9 mm
04:55 PM 68.7°F20.4°C 63.0°F17.2°C 82% 2.2 mph E3.5 kmh E 5.6 mph9.0 kmh 29.90 in1012.5 mb 0.16 in4.1 mm 0.00 in/hr0.0 mm/hr 0.43 in10.9 mm
04:57 PM 68.7°F20.4°C 63.0°F17.2°C 82% Calm Calm 5.6 mph9.0 kmh 29.91 in1012.9 mb 0.16 in4.1 mm 0.00 in/hr0.0 mm/hr 0.43 in10.9 mm
04:59 PM 68.7°F20.4°C 63.0°F17.2°C 82% Calm Calm 2.2 mph3.5 kmh 29.91 in1012.9 mb 0.14 in3.6 mm 0.00 in/hr0.0 mm/hr 0.43 in10.9 mm
05:01 PM 68.9°F20.5°C 63.2°F17.3°C 82% 0.2 mph SW0.3 kmh SW 2.2 mph3.5 kmh 29.90 in1012.5 mb 0.14 in3.6 mm 0.00 in/hr0.0 mm/hr 0.43 in10.9 mm
05:03 PM 68.7°F20.4°C 63.0°F17.2°C 82% 5.6 mph SW9.0 kmh SW 5.6 mph9.0 kmh 29.91 in1012.9 mb 0.12 in3.0 mm 0.00 in/hr0.0 mm/hr 0.43 in10.9 mm
05:05 PM 68.7°F20.4°C 63.0°F17.2°C 82% Calm Calm 5.6 mph9.0 kmh 29.91 in1012.9 mb 0.10 in2.5 mm 0.00 in/hr0.0 mm/hr 0.43 in10.9 mm
05:07 PM 68.7°F20.4°C 63.0°F17.2°C 82% Calm Calm 5.6 mph9.0 kmh 29.91 in1012.9 mb 0.10 in2.5 mm 0.00 in/hr0.0 mm/hr 0.43 in10.9 mm
05:09 PM 68.7°F20.4°C 63.0°F17.2°C 82% Calm Calm 5.6 mph9.0 kmh 29.92 in1013.2 mb 0.08 in2.0 mm 0.00 in/hr0.0 mm/hr 0.43 in10.9 mm
05:11 PM 68.7°F20.4°C 63.0°F17.2°C 82% Calm Calm 5.6 mph9.0 kmh 29.92 in1013.2 mb 0.08 in2.0 mm 0.00 in/hr0.0 mm/hr 0.43 in10.9 mm
05:13 PM 68.7°F20.4°C 63.0°F17.2°C 82% Calm Calm 5.6 mph9.0 kmh 29.92 in1013.2 mb 0.06 in1.5 mm 0.00 in/hr0.0 mm/hr 0.43 in10.9 mm
05:15 PM 68.9°F20.5°C 63.2°F17.3°C 82% 1.6 mph WNW2.6 kmh WNW 1.6 mph2.6 kmh 29.92 in1013.2 mb 0.06 in1.5 mm 0.00 in/hr0.0 mm/hr 0.43 in10.9 mm
05:17 PM 68.9°F20.5°C 63.2°F17.3°C 82% Calm Calm 1.6 mph2.6 kmh 29.92 in1013.2 mb 0.06 in1.5 mm 0.00 in/hr0.0 mm/hr 0.43 in10.9 mm
05:19 PM 68.9°F20.5°C 63.2°F17.3°C 82% Calm Calm 1.6 mph2.6 kmh 29.91 in1012.9 mb 0.06 in1.5 mm 0.00 in/hr0.0 mm/hr 0.43 in10.9 mm
05:21 PM 68.9°F20.5°C 63.2°F17.3°C 82% Calm Calm 1.6 mph2.6 kmh 29.91 in1012.9 mb 0.06 in1.5 mm 0.00 in/hr0.0 mm/hr 0.43 in10.9 mm
05:23 PM 68.9°F20.5°C 63.2°F17.3°C 82% Calm Calm 1.6 mph2.6 kmh 29.91 in1012.9 mb 0.06 in1.5 mm 0.00 in/hr0.0 mm/hr 0.43 in10.9 mm
05:25 PM 68.9°F20.5°C 63.2°F17.3°C 82% 2.0 mph ESE3.2 kmh ESE 2.0 mph3.2 kmh 29.91 in1012.9 mb 0.06 in1.5 mm 0.00 in/hr0.0 mm/hr 0.43 in10.9 mm
05:27 PM 68.7°F20.4°C 63.0°F17.2°C 82% Calm Calm 2.0 mph3.2 kmh 29.91 in1012.9 mb 0.06 in1.5 mm 0.00 in/hr0.0 mm/hr 0.43 in10.9 mm
05:29 PM 68.9°F20.5°C 63.2°F17.3°C 82% 0.4 mph ESE0.6 kmh ESE 2.0 mph3.2 kmh 29.91 in1012.9 mb 0.06 in1.5 mm 0.00 in/hr0.0 mm/hr 0.43 in10.9 mm
05:31 PM 68.7°F20.4°C 63.0°F17.2°C 82% Calm Calm 2.0 mph3.2 kmh 29.91 in1012.9 mb 0.06 in1.5 mm 0.00 in/hr0.0 mm/hr 0.43 in10.9 mm
05:33 PM 68.7°F20.4°C 63.0°F17.2°C 82% 1.3 mph ESE2.1 kmh ESE 2.0 mph3.2 kmh 29.91 in1012.9 mb 0.06 in1.5 mm 0.00 in/hr0.0 mm/hr 0.43 in10.9 mm
05:35 PM 68.7°F20.4°C 63.0°F17.2°C 82% Calm Calm 2.0 mph3.2 kmh 29.91 in1012.9 mb 0.04 in1.0 mm 0.00 in/hr0.0 mm/hr 0.43 in10.9 mm
05:37 PM 68.7°F20.4°C 63.0°F17.2°C 82% Calm Calm 1.3 mph2.1 kmh 29.91 in1012.9 mb 0.04 in1.0 mm 0.00 in/hr0.0 mm/hr 0.43 in10.9 mm
05:39 PM 68.7°F20.4°C 63.0°F17.2°C 82% Calm Calm 1.3 mph2.1 kmh 29.92 in1013.2 mb 0.04 in1.0 mm 0.00 in/hr0.0 mm/hr 0.43 in10.9 mm
05:41 PM 68.7°F20.4°C 63.3°F17.4°C 83% Calm Calm 1.3 mph2.1 kmh 29.92 in1013.2 mb 0.04 in1.0 mm 0.00 in/hr0.0 mm/hr 0.43 in10.9 mm
05:43 PM 68.7°F20.4°C 63.3°F17.4°C 83% Calm Calm 1.3 mph2.1 kmh 29.92 in1013.2 mb 0.02 in0.5 mm 0.00 in/hr0.0 mm/hr 0.43 in10.9 mm
05:45 PM 68.5°F20.3°C 62.8°F17.1°C 82% Calm Calm -- 29.92 in1013.2 mb 0.04 in1.0 mm 0.60 in/hr15.2 mm/hr 0.45 in11.4 mm
05:47 PM 68.5°F20.3°C 63.2°F17.3°C 83% Calm Calm -- 29.92 in1013.2 mb 0.04 in1.0 mm 0.00 in/hr0.0 mm/hr 0.45 in11.4 mm
05:49 PM 68.5°F20.3°C 63.2°F17.3°C 83% Calm Calm -- 29.93 in1013.5 mb 0.04 in1.0 mm 0.00 in/hr0.0 mm/hr 0.45 in11.4 mm
05:51 PM 68.5°F20.3°C 63.2°F17.3°C 83% Calm Calm -- 29.93 in1013.5 mb 0.04 in1.0 mm 0.00 in/hr0.0 mm/hr 0.45 in11.4 mm
05:53 PM 68.4°F20.2°C 63.0°F17.2°C 83% Calm Calm -- 29.93 in1013.5 mb 0.02 in0.5 mm 0.00 in/hr0.0 mm/hr 0.45 in11.4 mm
05:55 PM 68.4°F20.2°C 63.0°F17.2°C 83% Calm Calm -- 29.93 in1013.5 mb 0.02 in0.5 mm 0.00 in/hr0.0 mm/hr 0.45 in11.4 mm
05:57 PM 68.2°F20.1°C 62.8°F17.1°C 83% 0.9 mph ENE1.4 kmh ENE 0.9 mph1.4 kmh 29.93 in1013.5 mb 0.02 in0.5 mm 0.00 in/hr0.0 mm/hr 0.45 in11.4 mm
05:59 PM 68.2°F20.1°C 62.8°F17.1°C 83% 0.4 mph ENE0.6 kmh ENE 0.9 mph1.4 kmh 29.94 in1013.9 mb 0.02 in0.5 mm 0.00 in/hr0.0 mm/hr 0.45 in11.4 mm
06:01 PM 68.2°F20.1°C 62.8°F17.1°C 83% Calm Calm 0.9 mph1.4 kmh 29.94 in1013.9 mb 0.02 in0.5 mm 0.00 in/hr0.0 mm/hr 0.45 in11.4 mm
06:03 PM 68.2°F20.1°C 62.8°F17.1°C 83% Calm Calm 0.9 mph1.4 kmh 29.94 in1013.9 mb 0.02 in0.5 mm 0.00 in/hr0.0 mm/hr 0.45 in11.4 mm
06:05 PM 68.2°F20.1°C 62.8°F17.1°C 83% Calm Calm 0.9 mph1.4 kmh 29.93 in1013.5 mb 0.02 in0.5 mm 0.00 in/hr0.0 mm/hr 0.45 in11.4 mm
06:07 PM 68.2°F20.1°C 62.8°F17.1°C 83% Calm Calm 0.9 mph1.4 kmh 29.93 in1013.5 mb 0.02 in0.5 mm 0.00 in/hr0.0 mm/hr 0.45 in11.4 mm
06:09 PM 68.2°F20.1°C 62.8°F17.1°C 83% Calm Calm 0.4 mph0.6 kmh 29.94 in1013.9 mb 0.02 in0.5 mm 0.00 in/hr0.0 mm/hr 0.45 in11.4 mm
06:11 PM 68.0°F20.0°C 62.6°F17.0°C 83% Calm Calm -- 29.94 in1013.9 mb 0.02 in0.5 mm 0.00 in/hr0.0 mm/hr 0.45 in11.4 mm
06:13 PM 67.8°F19.9°C 62.5°F16.9°C 83% 6.3 mph ENE10.1 kmh ENE 6.3 mph10.1 kmh 29.94 in1013.9 mb 0.02 in0.5 mm 0.00 in/hr0.0 mm/hr 0.45 in11.4 mm
06:15 PM 68.0°F20.0°C 62.6°F17.0°C 83% Calm Calm 6.3 mph10.1 kmh 29.94 in1013.9 mb 0.02 in0.5 mm 0.00 in/hr0.0 mm/hr 0.45 in11.4 mm
06:17 PM 68.0°F20.0°C 62.6°F17.0°C 83% Calm Calm 6.3 mph10.1 kmh 29.95 in1014.2 mb 0.02 in0.5 mm 0.00 in/hr0.0 mm/hr 0.45 in11.4 mm
06:19 PM 67.8°F19.9°C 62.5°F16.9°C 83% Calm Calm 6.3 mph10.1 kmh 29.95 in1014.2 mb 0.02 in0.5 mm 0.00 in/hr0.0 mm/hr 0.45 in11.4 mm
06:21 PM 67.8°F19.9°C 62.5°F16.9°C 83% Calm Calm 6.3 mph10.1 kmh 29.95 in1014.2 mb 0.02 in0.5 mm 0.00 in/hr0.0 mm/hr 0.45 in11.4 mm
06:23 PM 67.8°F19.9°C 62.5°F16.9°C 83% Calm Calm 6.3 mph10.1 kmh 29.95 in1014.2 mb 0.02 in0.5 mm 0.00 in/hr0.0 mm/hr 0.45 in11.4 mm
06:25 PM 67.6°F19.8°C 62.3°F16.8°C 83% Calm Calm -- 29.95 in1014.2 mb 0.02 in0.5 mm 0.00 in/hr0.0 mm/hr 0.45 in11.4 mm
06:27 PM 67.6°F19.8°C 62.3°F16.8°C 83% Calm Calm -- 29.95 in1014.2 mb 0.02 in0.5 mm 0.00 in/hr0.0 mm/hr 0.45 in11.4 mm
06:29 PM 67.6°F19.8°C 62.3°F16.8°C 83% Calm Calm -- 29.95 in1014.2 mb 0.02 in0.5 mm 0.00 in/hr0.0 mm/hr 0.45 in11.4 mm
06:31 PM 67.5°F19.7°C 62.1°F16.7°C 83% Calm Calm -- 29.95 in1014.2 mb 0.02 in0.5 mm 0.00 in/hr0.0 mm/hr 0.45 in11.4 mm
06:33 PM 67.5°F19.7°C 62.1°F16.7°C 83% Calm Calm -- 29.95 in1014.2 mb 0.02 in0.5 mm 0.00 in/hr0.0 mm/hr 0.45 in11.4 mm
06:35 PM 67.3°F19.6°C 62.3°F16.8°C 84% Calm Calm -- 29.95 in1014.2 mb 0.02 in0.5 mm 0.00 in/hr0.0 mm/hr 0.47 in11.9 mm
06:37 PM 67.1°F19.5°C 62.1°F16.7°C 84% Calm Calm -- 29.95 in1014.2 mb 0.04 in1.0 mm 0.60 in/hr15.2 mm/hr 0.47 in11.9 mm
06:39 PM 67.1°F19.5°C 62.1°F16.7°C 84% Calm Calm -- 29.95 in1014.2 mb 0.04 in1.0 mm 0.00 in/hr0.0 mm/hr 0.47 in11.9 mm
06:41 PM 67.1°F19.5°C 62.1°F16.7°C 84% Calm Calm -- 29.95 in1014.2 mb 0.04 in1.0 mm 0.00 in/hr0.0 mm/hr 0.47 in11.9 mm
06:43 PM 66.9°F19.4°C 61.9°F16.6°C 84% Calm Calm -- 29.95 in1014.2 mb 0.04 in1.0 mm 0.00 in/hr0.0 mm/hr 0.47 in11.9 mm
06:45 PM 66.9°F19.4°C 61.9°F16.6°C 84% Calm Calm -- 29.95 in1014.2 mb 0.02 in0.5 mm 0.00 in/hr0.0 mm/hr 0.47 in11.9 mm
06:47 PM 66.9°F19.4°C 61.9°F16.6°C 84% Calm Calm -- 29.95 in1014.2 mb 0.02 in0.5 mm 0.00 in/hr0.0 mm/hr 0.47 in11.9 mm
06:49 PM 66.9°F19.4°C 61.9°F16.6°C 84% Calm Calm -- 29.95 in1014.2 mb 0.02 in0.5 mm 0.00 in/hr0.0 mm/hr 0.47 in11.9 mm
06:51 PM 66.9°F19.4°C 61.9°F16.6°C 84% Calm Calm -- 29.95 in1014.2 mb 0.02 in0.5 mm 0.00 in/hr0.0 mm/hr 0.47 in11.9 mm
06:53 PM 66.9°F19.4°C 61.9°F16.6°C 84% Calm Calm -- 29.95 in1014.2 mb 0.04 in1.0 mm 0.60 in/hr15.2 mm/hr 0.49 in12.4 mm
06:55 PM 66.7°F19.3°C 61.7°F16.5°C 84% Calm Calm -- 29.95 in1014.2 mb 0.04 in1.0 mm 0.00 in/hr0.0 mm/hr 0.49 in12.4 mm
06:57 PM 66.7°F19.3°C 61.7°F16.5°C 84% 2.9 mph ENE4.7 kmh ENE 2.9 mph4.7 kmh 29.95 in1014.2 mb 0.04 in1.0 mm 0.00 in/hr0.0 mm/hr 0.49 in12.4 mm
06:59 PM 66.7°F19.3°C 61.7°F16.5°C 84% Calm Calm 2.9 mph4.7 kmh 29.95 in1014.2 mb 0.04 in1.0 mm 0.00 in/hr0.0 mm/hr 0.49 in12.4 mm
07:01 PM 66.7°F19.3°C 61.7°F16.5°C 84% Calm Calm 2.9 mph4.7 kmh 29.96 in1014.6 mb 0.04 in1.0 mm 0.00 in/hr0.0 mm/hr 0.49 in12.4 mm
07:03 PM 66.7°F19.3°C 61.7°F16.5°C 84% Calm Calm 2.9 mph4.7 kmh 29.95 in1014.2 mb 0.04 in1.0 mm 0.00 in/hr0.0 mm/hr 0.49 in12.4 mm
07:05 PM 66.7°F19.3°C 61.7°F16.5°C 84% Calm Calm 2.9 mph4.7 kmh 29.96 in1014.6 mb 0.04 in1.0 mm 0.00 in/hr0.0 mm/hr 0.49 in12.4 mm
07:07 PM 66.7°F19.3°C 61.7°F16.5°C 84% Calm Calm 2.9 mph4.7 kmh 29.96 in1014.6 mb 0.04 in1.0 mm 0.00 in/hr0.0 mm/hr 0.49 in12.4 mm
07:09 PM 66.7°F19.3°C 61.7°F16.5°C 84% Calm Calm -- 29.95 in1014.2 mb 0.04 in1.0 mm 0.00 in/hr0.0 mm/hr 0.49 in12.4 mm
07:11 PM 66.7°F19.3°C 61.7°F16.5°C 84% Calm Calm -- 29.95 in1014.2 mb 0.04 in1.0 mm 0.00 in/hr0.0 mm/hr 0.49 in12.4 mm
07:13 PM 66.7°F19.3°C 61.7°F16.5°C 84% Calm Calm -- 29.95 in1014.2 mb 0.04 in1.0 mm 0.00 in/hr0.0 mm/hr 0.49 in12.4 mm
07:15 PM 66.7°F19.3°C 61.7°F16.5°C 84% Calm Calm -- 29.95 in1014.2 mb 0.04 in1.0 mm 0.00 in/hr0.0 mm/hr 0.49 in12.4 mm
07:17 PM 66.7°F19.3°C 61.7°F16.5°C 84% Calm Calm -- 29.95 in1014.2 mb 0.04 in1.0 mm 0.00 in/hr0.0 mm/hr 0.49 in12.4 mm
07:19 PM 66.7°F19.3°C 61.7°F16.5°C 84% Calm Calm -- 29.95 in1014.2 mb 0.04 in1.0 mm 0.00 in/hr0.0 mm/hr 0.49 in12.4 mm
07:21 PM 66.6°F19.2°C 61.9°F16.6°C 85% Calm Calm -- 29.95 in1014.2 mb 0.04 in1.0 mm 0.00 in/hr0.0 mm/hr 0.49 in12.4 mm
07:23 PM 66.6°F19.2°C 61.9°F16.6°C 85% Calm Calm -- 29.95 in1014.2 mb 0.04 in1.0 mm 0.00 in/hr0.0 mm/hr 0.49 in12.4 mm
07:25 PM 66.6°F19.2°C 61.9°F16.6°C 85% Calm Calm -- 29.95 in1014.2 mb 0.04 in1.0 mm 0.00 in/hr0.0 mm/hr 0.49 in12.4 mm
07:27 PM 66.6°F19.2°C 61.9°F16.6°C 85% Calm Calm -- 29.95 in1014.2 mb 0.04 in1.0 mm 0.00 in/hr0.0 mm/hr 0.49 in12.4 mm
07:29 PM 66.6°F19.2°C 61.9°F16.6°C 85% Calm Calm -- 29.95 in1014.2 mb 0.04 in1.0 mm 0.00 in/hr0.0 mm/hr 0.49 in12.4 mm
07:31 PM 66.6°F19.2°C 61.9°F16.6°C 85% Calm Calm -- 29.96 in1014.6 mb 0.04 in1.0 mm 0.00 in/hr0.0 mm/hr 0.49 in12.4 mm
07:33 PM 66.6°F19.2°C 61.9°F16.6°C 85% Calm Calm -- 29.95 in1014.2 mb 0.04 in1.0 mm 0.00 in/hr0.0 mm/hr 0.49 in12.4 mm
07:35 PM 66.6°F19.2°C 61.9°F16.6°C 85% Calm Calm -- 29.96 in1014.6 mb 0.04 in1.0 mm 0.00 in/hr0.0 mm/hr 0.49 in12.4 mm
07:37 PM 66.6°F19.2°C 61.9°F16.6°C 85% Calm Calm -- 29.95 in1014.2 mb 0.02 in0.5 mm 0.00 in/hr0.0 mm/hr 0.49 in12.4 mm
07:39 PM 66.6°F19.2°C 61.9°F16.6°C 85% Calm Calm -- 29.95 in1014.2 mb 0.02 in0.5 mm 0.00 in/hr0.0 mm/hr 0.49 in12.4 mm
07:41 PM 66.6°F19.2°C 61.9°F16.6°C 85% 3.6 mph ESE5.8 kmh ESE 3.6 mph5.8 kmh 29.95 in1014.2 mb 0.02 in0.5 mm 0.00 in/hr0.0 mm/hr 0.49 in12.4 mm
07:43 PM 66.4°F19.1°C 61.7°F16.5°C 85% Calm Calm 3.6 mph5.8 kmh 29.96 in1014.6 mb 0.02 in0.5 mm 0.00 in/hr0.0 mm/hr 0.49 in12.4 mm
07:45 PM 66.4°F19.1°C 61.7°F16.5°C 85% Calm Calm 3.6 mph5.8 kmh 29.96 in1014.6 mb 0.02 in0.5 mm 0.00 in/hr0.0 mm/hr 0.49 in12.4 mm
07:47 PM 66.4°F19.1°C 61.7°F16.5°C 85% Calm Calm 3.6 mph5.8 kmh 29.96 in1014.6 mb 0.02 in0.5 mm 0.00 in/hr0.0 mm/hr 0.49 in12.4 mm
07:49 PM 66.4°F19.1°C 61.7°F16.5°C 85% Calm Calm 3.6 mph5.8 kmh 29.96 in1014.6 mb 0.02 in0.5 mm 0.00 in/hr0.0 mm/hr 0.49 in12.4 mm
07:51 PM 66.4°F19.1°C 61.7°F16.5°C 85% Calm Calm 3.6 mph5.8 kmh 29.96 in1014.6 mb 0.02 in0.5 mm 0.00 in/hr0.0 mm/hr 0.49 in12.4 mm
07:53 PM 66.4°F19.1°C 61.7°F16.5°C 85% Calm Calm -- 29.96 in1014.6 mb 0.00 in0.0 mm 0.00 in/hr0.0 mm/hr 0.49 in12.4 mm
07:55 PM 66.4°F19.1°C 61.7°F16.5°C 85% Calm Calm -- 29.95 in1014.2 mb 0.00 in0.0 mm 0.00 in/hr0.0 mm/hr 0.49 in12.4 mm
07:57 PM 66.4°F19.1°C 61.7°F16.5°C 85% Calm Calm -- 29.95 in1014.2 mb 0.00 in0.0 mm 0.00 in/hr0.0 mm/hr 0.49 in12.4 mm
07:59 PM 66.4°F19.1°C 61.7°F16.5°C 85% Calm Calm -- 29.95 in1014.2 mb 0.00 in0.0 mm 0.00 in/hr0.0 mm/hr 0.49 in12.4 mm
08:01 PM 66.4°F19.1°C 61.7°F16.5°C 85% Calm Calm -- 29.95 in1014.2 mb 0.00 in0.0 mm 0.00 in/hr0.0 mm/hr 0.49 in12.4 mm
08:03 PM 66.4°F19.1°C 61.7°F16.5°C 85% Calm Calm -- 29.95 in1014.2 mb 0.00 in0.0 mm 0.00 in/hr0.0 mm/hr 0.49 in12.4 mm
08:05 PM 66.2°F19.0°C 61.6°F16.4°C 85% Calm Calm -- 29.95 in1014.2 mb 0.00 in0.0 mm 0.00 in/hr0.0 mm/hr 0.49 in12.4 mm
08:07 PM 66.2°F19.0°C 61.6°F16.4°C 85% Calm Calm -- 29.96 in1014.6 mb 0.00 in0.0 mm 0.00 in/hr0.0 mm/hr 0.49 in12.4 mm
08:09 PM 66.2°F19.0°C 61.6°F16.4°C 85% Calm Calm -- 29.96 in1014.6 mb 0.00 in0.0 mm 0.00 in/hr0.0 mm/hr 0.49 in12.4 mm
08:11 PM 66.2°F19.0°C 61.6°F16.4°C 85% Calm Calm -- 29.96 in1014.6 mb 0.02 in0.5 mm 0.60 in/hr15.2 mm/hr 0.51 in13.0 mm
08:13 PM 66.2°F19.0°C 61.6°F16.4°C 85% Calm Calm -- 29.96 in1014.6 mb 0.02 in0.5 mm 0.00 in/hr0.0 mm/hr 0.51 in13.0 mm
08:15 PM 66.0°F18.9°C 61.4°F16.3°C 85% Calm Calm -- 29.97 in1014.9 mb 0.02 in0.5 mm 0.00 in/hr0.0 mm/hr 0.51 in13.0 mm
08:17 PM 66.0°F18.9°C 61.4°F16.3°C 85% Calm Calm -- 29.97 in1014.9 mb 0.02 in0.5 mm 0.00 in/hr0.0 mm/hr 0.51 in13.0 mm
08:19 PM 66.0°F18.9°C 61.4°F16.3°C 85% Calm Calm -- 29.97 in1014.9 mb 0.02 in0.5 mm 0.00 in/hr0.0 mm/hr 0.51 in13.0 mm
08:21 PM 66.0°F18.9°C 61.4°F16.3°C 85% Calm Calm -- 29.97 in1014.9 mb 0.02 in0.5 mm 0.00 in/hr0.0 mm/hr 0.51 in13.0 mm
08:23 PM 66.0°F18.9°C 61.4°F16.3°C 85% Calm Calm -- 29.97 in1014.9 mb 0.02 in0.5 mm 0.00 in/hr0.0 mm/hr 0.51 in13.0 mm
08:25 PM 66.0°F18.9°C 61.4°F16.3°C 85% Calm Calm -- 29.98 in1015.2 mb 0.02 in0.5 mm 0.00 in/hr0.0 mm/hr 0.51 in13.0 mm
08:27 PM 66.0°F18.9°C 61.4°F16.3°C 85% Calm Calm -- 29.97 in1014.9 mb 0.02 in0.5 mm 0.00 in/hr0.0 mm/hr 0.51 in13.0 mm
08:29 PM 66.0°F18.9°C 61.4°F16.3°C 85% Calm Calm -- 29.98 in1015.2 mb 0.02 in0.5 mm 0.00 in/hr0.0 mm/hr 0.51 in13.0 mm
08:31 PM 66.0°F18.9°C 61.4°F16.3°C 85% Calm Calm -- 29.97 in1014.9 mb 0.02 in0.5 mm 0.00 in/hr0.0 mm/hr 0.51 in13.0 mm
08:33 PM 65.8°F18.8°C 61.2°F16.2°C 85% Calm Calm -- 29.97 in1014.9 mb 0.02 in0.5 mm 0.00 in/hr0.0 mm/hr 0.51 in13.0 mm
08:35 PM 65.8°F18.8°C 61.2°F16.2°C 85% Calm Calm -- 29.97 in1014.9 mb 0.02 in0.5 mm 0.00 in/hr0.0 mm/hr 0.51 in13.0 mm
08:37 PM 65.7°F18.7°C 61.0°F16.1°C 85% Calm Calm -- 29.97 in1014.9 mb 0.02 in0.5 mm 0.00 in/hr0.0 mm/hr 0.51 in13.0 mm
08:39 PM 65.7°F18.7°C 61.0°F16.1°C 85% Calm Calm -- 29.97 in1014.9 mb 0.02 in0.5 mm 0.00 in/hr0.0 mm/hr 0.51 in13.0 mm
08:41 PM 65.5°F18.6°C 60.8°F16.0°C 85% Calm Calm -- 29.97 in1014.9 mb 0.02 in0.5 mm 0.00 in/hr0.0 mm/hr 0.51 in13.0 mm
08:43 PM 65.5°F18.6°C 60.8°F16.0°C 85% 1.6 mph E2.6 kmh E 1.6 mph2.6 kmh 29.97 in1014.9 mb 0.02 in0.5 mm 0.00 in/hr0.0 mm/hr 0.51 in13.0 mm
08:45 PM 65.3°F18.5°C 60.7°F15.9°C 85% 1.6 mph E2.6 kmh E 1.6 mph2.6 kmh 29.97 in1014.9 mb 0.02 in0.5 mm 0.00 in/hr0.0 mm/hr 0.51 in13.0 mm
08:47 PM 65.3°F18.5°C 60.7°F15.9°C 85% Calm Calm 1.6 mph2.6 kmh 29.97 in1014.9 mb 0.02 in0.5 mm 0.00 in/hr0.0 mm/hr 0.51 in13.0 mm
08:49 PM 65.3°F18.5°C 60.7°F15.9°C 85% Calm Calm 1.6 mph2.6 kmh 29.97 in1014.9 mb 0.02 in0.5 mm 0.00 in/hr0.0 mm/hr 0.51 in13.0 mm
08:51 PM 65.3°F18.5°C 60.7°F15.9°C 85% Calm Calm 1.6 mph2.6 kmh 29.97 in1014.9 mb 0.02 in0.5 mm 0.00 in/hr0.0 mm/hr 0.51 in13.0 mm
08:53 PM 65.1°F18.4°C 60.5°F15.8°C 85% Calm Calm 1.6 mph2.6 kmh 29.97 in1014.9 mb 0.02 in0.5 mm 0.00 in/hr0.0 mm/hr 0.51 in13.0 mm
08:55 PM 64.9°F18.3°C 60.3°F15.7°C 85% 3.6 mph ESE5.8 kmh ESE 3.6 mph5.8 kmh 29.97 in1014.9 mb 0.02 in0.5 mm 0.00 in/hr0.0 mm/hr 0.51 in13.0 mm
08:57 PM 64.9°F18.3°C 60.3°F15.7°C 85% Calm Calm 3.6 mph5.8 kmh 29.97 in1014.9 mb 0.02 in0.5 mm 0.00 in/hr0.0 mm/hr 0.51 in13.0 mm
08:59 PM 64.9°F18.3°C 60.3°F15.7°C 85% Calm Calm 3.6 mph5.8 kmh 29.97 in1014.9 mb 0.02 in0.5 mm 0.00 in/hr0.0 mm/hr 0.51 in13.0 mm
09:01 PM 64.9°F18.3°C 60.3°F15.7°C 85% Calm Calm 3.6 mph5.8 kmh 29.97 in1014.9 mb 0.02 in0.5 mm 0.00 in/hr0.0 mm/hr 0.51 in13.0 mm
09:03 PM 64.9°F18.3°C 60.3°F15.7°C 85% Calm Calm 3.6 mph5.8 kmh 29.97 in1014.9 mb 0.02 in0.5 mm 0.00 in/hr0.0 mm/hr 0.51 in13.0 mm
09:05 PM 64.9°F18.3°C 60.3°F15.7°C 85% Calm Calm 3.6 mph5.8 kmh 29.97 in1014.9 mb 0.02 in0.5 mm 0.00 in/hr0.0 mm/hr 0.51 in13.0 mm
09:07 PM 64.8°F18.2°C 60.1°F15.6°C 86% Calm Calm -- 29.97 in1014.9 mb 0.02 in0.5 mm 0.00 in/hr0.0 mm/hr 0.51 in13.0 mm
09:09 PM 64.8°F18.2°C 60.5°F15.8°C 86% Calm Calm -- 29.98 in1015.2 mb 0.00 in0.0 mm 0.00 in/hr0.0 mm/hr 0.51 in13.0 mm
09:11 PM 64.8°F18.2°C 60.5°F15.8°C 86% Calm Calm -- 29.98 in1015.2 mb 0.00 in0.0 mm 0.00 in/hr0.0 mm/hr 0.51 in13.0 mm
09:13 PM 64.8°F18.2°C 60.5°F15.8°C 86% Calm Calm -- 29.98 in1015.2 mb 0.00 in0.0 mm 0.00 in/hr0.0 mm/hr 0.51 in13.0 mm
09:15 PM 64.8°F18.2°C 60.5°F15.8°C 86% Calm Calm -- 29.98 in1015.2 mb 0.00 in0.0 mm 0.00 in/hr0.0 mm/hr 0.51 in13.0 mm
09:17 PM 64.6°F18.1°C 60.3°F15.7°C 86% Calm Calm -- 29.99 in1015.6 mb 0.00 in0.0 mm 0.00 in/hr0.0 mm/hr 0.51 in13.0 mm
09:19 PM 64.6°F18.1°C 60.3°F15.7°C 86% Calm Calm -- 29.98 in1015.2 mb 0.00 in0.0 mm 0.00 in/hr0.0 mm/hr 0.51 in13.0 mm
09:21 PM 64.6°F18.1°C 60.3°F15.7°C 86% Calm Calm -- 29.99 in1015.6 mb 0.00 in0.0 mm 0.00 in/hr0.0 mm/hr 0.51 in13.0 mm
09:23 PM 64.6°F18.1°C 60.3°F15.7°C 86% Calm Calm -- 29.99 in1015.6 mb 0.00 in0.0 mm 0.00 in/hr0.0 mm/hr 0.51 in13.0 mm
09:25 PM 64.6°F18.1°C 60.3°F15.7°C 86% Calm Calm -- 29.99 in1015.6 mb 0.00 in0.0 mm 0.00 in/hr0.0 mm/hr 0.51 in13.0 mm
09:27 PM 64.6°F18.1°C 60.3°F15.7°C 86% Calm Calm -- 29.99 in1015.6 mb 0.00 in0.0 mm 0.00 in/hr0.0 mm/hr 0.51 in13.0 mm
09:29 PM 64.6°F18.1°C 60.3°F15.7°C 86% Calm Calm -- 29.98 in1015.2 mb 0.00 in0.0 mm 0.00 in/hr0.0 mm/hr 0.51 in13.0 mm
09:31 PM 64.6°F18.1°C 60.3°F15.7°C 86% Calm Calm -- 29.98 in1015.2 mb 0.00 in0.0 mm 0.00 in/hr0.0 mm/hr 0.51 in13.0 mm
09:33 PM 64.6°F18.1°C 60.3°F15.7°C 86% Calm Calm -- 29.98 in1015.2 mb 0.00 in0.0 mm 0.00 in/hr0.0 mm/hr 0.51 in13.0 mm
09:35 PM 64.6°F18.1°C 60.3°F15.7°C 86% Calm Calm -- 29.98 in1015.2 mb 0.00 in0.0 mm 0.00 in/hr0.0 mm/hr 0.51 in13.0 mm
09:37 PM 64.6°F18.1°C 60.3°F15.7°C 86% Calm Calm -- 29.98 in1015.2 mb 0.00 in0.0 mm 0.00 in/hr0.0 mm/hr 0.51 in13.0 mm
09:39 PM 64.6°F18.1°C 60.3°F15.7°C 86% Calm Calm -- 29.98 in1015.2 mb 0.00 in0.0 mm 0.00 in/hr0.0 mm/hr 0.51 in13.0 mm
09:41 PM 64.6°F18.1°C 60.3°F15.7°C 86% Calm Calm -- 29.98 in1015.2 mb 0.00 in0.0 mm 0.00 in/hr0.0 mm/hr 0.51 in13.0 mm
09:43 PM 64.6°F18.1°C 60.3°F15.7°C 86% Calm Calm -- 29.98 in1015.2 mb 0.00 in0.0 mm 0.00 in/hr0.0 mm/hr 0.51 in13.0 mm
09:45 PM 64.6°F18.1°C 60.3°F15.7°C 86% Calm Calm -- 29.98 in1015.2 mb 0.00 in0.0 mm 0.00 in/hr0.0 mm/hr 0.51 in13.0 mm
09:47 PM 64.4°F18.0°C 60.1°F15.6°C 86% Calm Calm -- 29.99 in1015.6 mb 0.00 in0.0 mm 0.00 in/hr0.0 mm/hr 0.51 in13.0 mm
09:49 PM 64.4°F18.0°C 60.1°F15.6°C 86% Calm Calm -- 29.99 in1015.6 mb 0.00 in0.0 mm 0.00 in/hr0.0 mm/hr 0.51 in13.0 mm
09:51 PM 64.2°F17.9°C 59.9°F15.5°C 86% Calm Calm -- 29.99 in1015.6 mb 0.00 in0.0 mm 0.00 in/hr0.0 mm/hr 0.51 in13.0 mm
09:53 PM 64.2°F17.9°C 59.9°F15.5°C 86% 2.0 mph SSW3.2 kmh SSW 2.0 mph3.2 kmh 29.99 in1015.6 mb 0.00 in0.0 mm 0.00 in/hr0.0 mm/hr 0.51 in13.0 mm
09:55 PM 64.2°F17.9°C 59.9°F15.5°C 86% Calm Calm 2.0 mph3.2 kmh 29.98 in1015.2 mb 0.00 in0.0 mm 0.00 in/hr0.0 mm/hr 0.51 in13.0 mm
09:57 PM 64.2°F17.9°C 59.9°F15.5°C 86% Calm Calm 2.0 mph3.2 kmh 29.99 in1015.6 mb 0.00 in0.0 mm 0.00 in/hr0.0 mm/hr 0.51 in13.0 mm
09:59 PM 64.2°F17.9°C 59.9°F15.5°C 86% Calm Calm 2.0 mph3.2 kmh 29.98 in1015.2 mb 0.00 in0.0 mm 0.00 in/hr0.0 mm/hr 0.51 in13.0 mm
10:01 PM 64.2°F17.9°C 59.9°F15.5°C 86% Calm Calm 2.0 mph3.2 kmh 29.98 in1015.2 mb 0.00 in0.0 mm 0.00 in/hr0.0 mm/hr 0.51 in13.0 mm
10:03 PM 64.2°F17.9°C 59.9°F15.5°C 86% Calm Calm 2.0 mph3.2 kmh 29.98 in1015.2 mb 0.00 in0.0 mm 0.00 in/hr0.0 mm/hr 0.51 in13.0 mm
10:05 PM 64.2°F17.9°C 59.9°F15.5°C 86% Calm Calm -- 29.98 in1015.2 mb 0.00 in0.0 mm 0.00 in/hr0.0 mm/hr 0.51 in13.0 mm
10:07 PM 64.2°F17.9°C 59.9°F15.5°C 86% Calm Calm -- 29.98 in1015.2 mb 0.00 in0.0 mm 0.00 in/hr0.0 mm/hr 0.51 in13.0 mm
10:09 PM 64.2°F17.9°C 59.9°F15.5°C 86% Calm Calm -- 29.98 in1015.2 mb 0.00 in0.0 mm 0.00 in/hr0.0 mm/hr 0.51 in13.0 mm
10:11 PM 64.2°F17.9°C 59.9°F15.5°C 86% Calm Calm -- 29.97 in1014.9 mb 0.00 in0.0 mm 0.00 in/hr0.0 mm/hr 0.51 in13.0 mm
10:13 PM 64.2°F17.9°C 59.9°F15.5°C 86% Calm Calm -- 29.97 in1014.9 mb 0.00 in0.0 mm 0.00 in/hr0.0 mm/hr 0.51 in13.0 mm
10:15 PM 64.0°F17.8°C 59.8°F15.4°C 86% Calm Calm -- 29.97 in1014.9 mb 0.00 in0.0 mm 0.00 in/hr0.0 mm/hr 0.51 in13.0 mm
10:17 PM 64.2°F17.9°C 59.9°F15.5°C 86% Calm Calm -- 29.97 in1014.9 mb 0.00 in0.0 mm 0.00 in/hr0.0 mm/hr 0.51 in13.0 mm
10:19 PM 64.0°F17.8°C 59.8°F15.4°C 86% Calm Calm -- 29.97 in1014.9 mb 0.00 in0.0 mm 0.00 in/hr0.0 mm/hr 0.51 in13.0 mm
10:21 PM 64.0°F17.8°C 59.8°F15.4°C 86% Calm Calm -- 29.97 in1014.9 mb 0.00 in0.0 mm 0.00 in/hr0.0 mm/hr 0.51 in13.0 mm
10:23 PM 64.0°F17.8°C 59.8°F15.4°C 86% Calm Calm -- 29.97 in1014.9 mb 0.00 in0.0 mm 0.00 in/hr0.0 mm/hr 0.51 in13.0 mm
10:25 PM 64.0°F17.8°C 59.8°F15.4°C 86% Calm Calm -- 29.97 in1014.9 mb 0.00 in0.0 mm 0.00 in/hr0.0 mm/hr 0.51 in13.0 mm
10:27 PM 64.0°F17.8°C 59.8°F15.4°C 86% Calm Calm -- 29.97 in1014.9 mb 0.00 in0.0 mm 0.00 in/hr0.0 mm/hr 0.51 in13.0 mm
10:29 PM 64.0°F17.8°C 59.8°F15.4°C 86% Calm Calm -- 29.97 in1014.9 mb 0.00 in0.0 mm 0.00 in/hr0.0 mm/hr 0.51 in13.0 mm
10:31 PM 64.0°F17.8°C 59.8°F15.4°C 86% Calm Calm -- 29.97 in1014.9 mb 0.00 in0.0 mm 0.00 in/hr0.0 mm/hr 0.51 in13.0 mm
10:33 PM 64.0°F17.8°C 59.8°F15.4°C 86% Calm Calm -- 29.97 in1014.9 mb 0.00 in0.0 mm 0.00 in/hr0.0 mm/hr 0.51 in13.0 mm
10:35 PM 64.0°F17.8°C 59.8°F15.4°C 86% Calm Calm -- 29.97 in1014.9 mb 0.00 in0.0 mm 0.00 in/hr0.0 mm/hr 0.51 in13.0 mm
10:37 PM 64.0°F17.8°C 59.8°F15.4°C 86% Calm Calm -- 29.96 in1014.6 mb 0.00 in0.0 mm 0.00 in/hr0.0 mm/hr 0.51 in13.0 mm
10:39 PM 64.0°F17.8°C 59.8°F15.4°C 86% Calm Calm -- 29.97 in1014.9 mb 0.00 in0.0 mm 0.00 in/hr0.0 mm/hr 0.51 in13.0 mm
10:41 PM 64.0°F17.8°C 59.8°F15.4°C 86% Calm Calm -- 29.97 in1014.9 mb 0.00 in0.0 mm 0.00 in/hr0.0 mm/hr 0.51 in13.0 mm
10:43 PM 64.0°F17.8°C 59.8°F15.4°C 86% Calm Calm -- 29.97 in1014.9 mb 0.00 in0.0 mm 0.00 in/hr0.0 mm/hr 0.51 in13.0 mm
10:45 PM 64.0°F17.8°C 59.8°F15.4°C 86% Calm Calm -- 29.97 in1014.9 mb 0.00 in0.0 mm 0.00 in/hr0.0 mm/hr 0.51 in13.0 mm
10:47 PM 64.0°F17.8°C 59.8°F15.4°C 86% Calm Calm -- 29.97 in1014.9 mb 0.00 in0.0 mm 0.00 in/hr0.0 mm/hr 0.51 in13.0 mm
10:49 PM 64.0°F17.8°C 59.8°F15.4°C 86% Calm Calm -- 29.97 in1014.9 mb 0.00 in0.0 mm 0.00 in/hr0.0 mm/hr 0.51 in13.0 mm
10:51 PM 64.0°F17.8°C 59.8°F15.4°C 86% Calm Calm -- 29.97 in1014.9 mb 0.00 in0.0 mm 0.00 in/hr0.0 mm/hr 0.51 in13.0 mm
10:53 PM 64.0°F17.8°C 59.8°F15.4°C 86% Calm Calm -- 29.96 in1014.6 mb 0.00 in0.0 mm 0.00 in/hr0.0 mm/hr 0.51 in13.0 mm
10:55 PM 64.0°F17.8°C 59.4°F15.2°C 85% Calm Calm -- 29.96 in1014.6 mb 0.00 in0.0 mm 0.00 in/hr0.0 mm/hr 0.51 in13.0 mm
10:57 PM 64.0°F17.8°C 59.4°F15.2°C 85% Calm Calm -- 29.96 in1014.6 mb 0.00 in0.0 mm 0.00 in/hr0.0 mm/hr 0.51 in13.0 mm
10:59 PM 64.0°F17.8°C 59.4°F15.2°C 85% Calm Calm -- 29.96 in1014.6 mb 0.00 in0.0 mm 0.00 in/hr0.0 mm/hr 0.51 in13.0 mm
11:01 PM 63.9°F17.7°C 59.3°F15.2°C 85% Calm Calm -- 29.96 in1014.6 mb 0.00 in0.0 mm 0.00 in/hr0.0 mm/hr 0.51 in13.0 mm
11:03 PM 63.9°F17.7°C 59.3°F15.2°C 85% Calm Calm -- 29.96 in1014.6 mb 0.00 in0.0 mm 0.00 in/hr0.0 mm/hr 0.51 in13.0 mm
11:05 PM 63.9°F17.7°C 59.3°F15.2°C 85% Calm Calm -- 29.96 in1014.6 mb 0.00 in0.0 mm 0.00 in/hr0.0 mm/hr 0.51 in13.0 mm
11:07 PM 63.9°F17.7°C 59.3°F15.2°C 85% Calm Calm -- 29.96 in1014.6 mb 0.00 in0.0 mm 0.00 in/hr0.0 mm/hr 0.51 in13.0 mm
11:09 PM 63.7°F17.6°C 59.1°F15.1°C 85% Calm Calm -- 29.96 in1014.6 mb 0.00 in0.0 mm 0.00 in/hr0.0 mm/hr 0.51 in13.0 mm
11:11 PM 63.7°F17.6°C 59.1°F15.1°C 85% Calm Calm -- 29.95 in1014.2 mb 0.00 in0.0 mm 0.00 in/hr0.0 mm/hr 0.51 in13.0 mm
11:13 PM 63.7°F17.6°C 59.1°F15.1°C 85% Calm Calm -- 29.95 in1014.2 mb 0.00 in0.0 mm 0.00 in/hr0.0 mm/hr 0.51 in13.0 mm
11:15 PM 63.7°F17.6°C 59.1°F15.1°C 85% Calm Calm -- 29.95 in1014.2 mb 0.00 in0.0 mm 0.00 in/hr0.0 mm/hr 0.51 in13.0 mm
11:17 PM 63.7°F17.6°C 59.1°F15.1°C 85% Calm Calm -- 29.95 in1014.2 mb 0.00 in0.0 mm 0.00 in/hr0.0 mm/hr 0.51 in13.0 mm
11:19 PM 63.7°F17.6°C 59.1°F15.1°C 85% Calm Calm -- 29.95 in1014.2 mb 0.00 in0.0 mm 0.00 in/hr0.0 mm/hr 0.51 in13.0 mm
11:21 PM 63.7°F17.6°C 59.1°F15.1°C 85% Calm Calm -- 29.95 in1014.2 mb 0.00 in0.0 mm 0.00 in/hr0.0 mm/hr 0.51 in13.0 mm
11:23 PM 63.7°F17.6°C 59.1°F15.1°C 85% Calm Calm -- 29.95 in1014.2 mb 0.00 in0.0 mm 0.00 in/hr0.0 mm/hr 0.51 in13.0 mm
11:25 PM 63.7°F17.6°C 59.1°F15.1°C 85% Calm Calm -- 29.95 in1014.2 mb 0.00 in0.0 mm 0.00 in/hr0.0 mm/hr 0.51 in13.0 mm
11:27 PM 63.7°F17.6°C 59.1°F15.1°C 85% Calm Calm -- 29.95 in1014.2 mb 0.00 in0.0 mm 0.00 in/hr0.0 mm/hr 0.51 in13.0 mm
11:29 PM 63.7°F17.6°C 59.1°F15.1°C 85% Calm Calm -- 29.95 in1014.2 mb 0.00 in0.0 mm 0.00 in/hr0.0 mm/hr 0.51 in13.0 mm
11:31 PM 63.7°F17.6°C 59.1°F15.1°C 85% Calm Calm -- 29.95 in1014.2 mb 0.00 in0.0 mm 0.00 in/hr0.0 mm/hr 0.51 in13.0 mm
11:33 PM 63.5°F17.5°C 58.9°F14.9°C 85% Calm Calm -- 29.95 in1014.2 mb 0.00 in0.0 mm 0.00 in/hr0.0 mm/hr 0.51 in13.0 mm
11:35 PM 63.7°F17.6°C 59.1°F15.1°C 85% Calm Calm -- 29.95 in1014.2 mb 0.00 in0.0 mm 0.00 in/hr0.0 mm/hr 0.51 in13.0 mm
11:37 PM 63.7°F17.6°C 59.1°F15.1°C 85% Calm Calm -- 29.94 in1013.9 mb 0.00 in0.0 mm 0.00 in/hr0.0 mm/hr 0.51 in13.0 mm
11:39 PM 63.5°F17.5°C 58.9°F14.9°C 85% Calm Calm -- 29.94 in1013.9 mb 0.00 in0.0 mm 0.00 in/hr0.0 mm/hr 0.51 in13.0 mm
11:41 PM 63.5°F17.5°C 58.9°F14.9°C 85% Calm Calm -- 29.94 in1013.9 mb 0.00 in0.0 mm 0.00 in/hr0.0 mm/hr 0.51 in13.0 mm
11:43 PM 63.5°F17.5°C 58.9°F14.9°C 85% Calm Calm -- 29.94 in1013.9 mb 0.00 in0.0 mm 0.00 in/hr0.0 mm/hr 0.51 in13.0 mm
11:45 PM 63.5°F17.5°C 58.9°F14.9°C 85% Calm Calm -- 29.94 in1013.9 mb 0.00 in0.0 mm 0.00 in/hr0.0 mm/hr 0.51 in13.0 mm
11:47 PM 63.5°F17.5°C 58.6°F14.8°C 84% Calm Calm -- 29.94 in1013.9 mb 0.00 in0.0 mm 0.00 in/hr0.0 mm/hr 0.51 in13.0 mm
11:49 PM 63.5°F17.5°C 58.9°F14.9°C 85% Calm Calm -- 29.94 in1013.9 mb 0.00 in0.0 mm 0.00 in/hr0.0 mm/hr 0.51 in13.0 mm
11:51 PM 63.5°F17.5°C 58.9°F14.9°C 85% Calm Calm -- 29.94 in1013.9 mb 0.00 in0.0 mm 0.00 in/hr0.0 mm/hr 0.51 in13.0 mm
11:53 PM 63.3°F17.4°C 58.7°F14.8°C 85% Calm Calm -- 29.94 in1013.9 mb 0.00 in0.0 mm 0.00 in/hr0.0 mm/hr 0.51 in13.0 mm
11:55 PM 63.3°F17.4°C 58.7°F14.8°C 85% 0.9 mph NE1.4 kmh NE 0.9 mph1.4 kmh 29.94 in1013.9 mb 0.00 in0.0 mm 0.00 in/hr0.0 mm/hr 0.51 in13.0 mm
11:57 PM 63.3°F17.4°C 58.4°F14.7°C 84% Calm Calm 0.9 mph1.4 kmh 29.94 in1013.9 mb 0.00 in0.0 mm 0.00 in/hr0.0 mm/hr 0.51 in13.0 mm
11:59 PM 63.3°F17.4°C 58.7°F14.8°C 85% Calm Calm 0.9 mph1.4 kmh 29.94 in1013.9 mb 0.00 in0.0 mm 0.00 in/hr0.0 mm/hr 0.51 in13.0 mm